Flight Track Log - Related Links

Times and Time Zones

All times are in EDT time to prevent confusion due to time zone crossing. See the UAL139 flight status page for this flight to view local times or setup timezone preferences in your user account.

Time Position Orientation Groundspeed Altitude Reporting Facility
EDT Latitude Longitude Course Direction KTS MPH feet Rate Location/Type
Mon 03:03:05 PM 39.9100 -104.6990 357° North 212 244 6,100  Level FlightAware ADS-B
Mon 03:03:25 PM 39.9300 -104.7070 343° North 231 266 6,600 1,167 Climbing FlightAware ADS-B
Mon 03:03:41 PM 39.9470 -104.7140 342° North 249 287 6,800 955 Climbing FlightAware ADS-B
Mon 03:04:09 PM 39.9800 -104.7270 343° North 279 321 7,300 1,500 Climbing FlightAware ADS-B
Mon 03:04:29 PM 40.0050 -104.7370 343° North 288 331 8,000 2,333 Climbing FlightAware ADS-B
Mon 03:04:45 PM 40.0260 -104.7460 342° North 291 335 8,700 2,471 Climbing FlightAware ADS-B
Mon 03:05:03 PM 40.0470 -104.7570 338° Northwest 288 331 9,400 2,308 Climbing FlightAware ADS-B
Mon 03:05:11 PM 40.0560 -104.7660 323° Northwest 288 331 9,700 2,400 Climbing FlightAware ADS-B
Mon 03:05:23 PM 40.0670 -104.7800 316° Northwest 287 330 10,200 1,929 Climbing FlightAware ADS-B
Mon 03:05:39 PM 40.0790 -104.8040 303° West 296 341 10,600 1,286 Climbing FlightAware ADS-B
Mon 03:05:51 PM 40.0830 -104.8250 284° West 310 357 10,800 1,227 Climbing FlightAware ADS-B
Mon 03:06:23 PM 40.0810 -104.8890 268° West 338 389 11,500 1,667 Climbing FlightAware ADS-B
Mon 03:07:03 PM 40.0650 -104.9700 256° West 355 409 12,800 1,973 Climbing FlightAware ADS-B
Mon 03:07:36 PM 40.0560 -105.0390 260° West 363 418 13,900 2,118 Climbing FlightAware ADS-B
Mon 03:08:11 PM 40.0470 -105.1170 261° West 369 425 15,200 2,087 Climbing FlightAware ADS-B
Mon 03:08:45 PM 40.0370 -105.1920 260° West 377 434 16,300 1,913 Climbing FlightAware ADS-B
Mon 03:09:20 PM 40.0280 -105.2690 261° West 383 441 17,400 1,865 Climbing FlightAware ADS-B
Mon 03:09:59 PM 40.0150 -105.3610 260° West 393 452 18,600 1,859 Climbing FlightAware ADS-B
Mon 03:10:31 PM 40.0060 -105.4370 261° West 396 456 19,600 1,688 Climbing FlightAware ADS-B
Mon 03:11:03 PM 39.9960 -105.5120 260° West 406 467 20,400 1,425 Climbing FlightAware ADS-B
Mon 03:11:51 PM 39.9820 -105.6280 261° West 418 481 21,500 1,139 Climbing FlightAware ADS-B
Mon 03:12:22 PM 39.9740 -105.7090 263° West 436 502 21,900 1,091 Climbing FlightAware ADS-B
Mon 03:12:57 PM 39.9720 -105.8030 268° West 443 510 22,700 1,333 Climbing FlightAware ADS-B
Mon 03:13:34 PM 39.9730 -105.9010 271° West 451 519 23,500 1,315 Climbing FlightAware ADS-B
Mon 03:14:10 PM 39.9790 -106.0000 275° West 457 526 24,300 1,268 Climbing FlightAware ADS-B
Mon 03:14:45 PM 39.9840 -106.0970 274° West 463 533 25,000 1,183 Climbing FlightAware ADS-B
Mon 03:15:21 PM 39.9900 -106.1970 275° West 467 537 25,700 1,200 Climbing FlightAware ADS-B
Mon 03:15:55 PM 39.9950 -106.2950 274° West 473 544 26,400 1,114 Climbing FlightAware ADS-B
Mon 03:16:31 PM 40.0000 -106.3990 274° West 478 550 27,000 1,031 Climbing FlightAware ADS-B
Mon 03:16:59 PM 40.0080 -106.4780 278° West 485 558 27,500 1,059 Climbing FlightAware ADS-B
Mon 03:17:39 PM 40.0240 -106.5890 281° West 490 564 28,200 1,054 Climbing FlightAware ADS-B
Mon 03:18:13 PM 40.0390 -106.6920 281° West 492 566 28,800 1,029 Climbing FlightAware ADS-B
Mon 03:18:49 PM 40.0530 -106.7940 280° West 495 570 29,400 1,083 Climbing FlightAware ADS-B
Mon 03:19:25 PM 40.0690 -106.9040 281° West 494 568 30,100 649 Climbing FlightAware ADS-B
Mon 03:20:03 PM 40.0820 -106.9980 280° West 497 572 30,200 80 Climbing FlightAware ADS-B
Mon 03:20:40 PM 40.0940 -107.0910 280° West 497 572 30,200 1,129 Level FlightAware ADS-B
Mon 03:21:28 PM 40.1160 -107.2420 281° West 503 579 31,800 1,807 Climbing FlightAware ADS-B
Mon 03:22:03 PM 40.1330 -107.3670 280° West 500 575 32,700 1,500 Climbing FlightAware ADS-B
Mon 03:22:40 PM 40.1480 -107.4780 280° West 492 566 33,600 1,083 Climbing FlightAware ADS-B
Mon 03:23:15 PM 40.1620 -107.5810 280° West 486 559 34,000 312 Climbing FlightAware ADS-B
Mon 03:23:57 PM 40.1790 -107.7030 280° West 492 566 34,000  Level FlightAware ADS-B
Mon 03:24:31 PM 40.1920 -107.8030 280° West 491 565 34,000  Level FlightAware ADS-B
Mon 03:25:06 PM 40.2050 -107.9030 280° West 492 566 34,000 358 Level FlightAware ADS-B
Mon 03:25:38 PM 40.2170 -107.9930 280° West 493 567 34,400 1,254 Climbing FlightAware ADS-B
Mon 03:26:13 PM 40.2310 -108.0960 280° West 484 557 35,400 1,324 Climbing FlightAware ADS-B
Mon 03:26:46 PM 40.2420 -108.1830 279° West 481 554 35,900 1,026 Climbing FlightAware ADS-B
Mon 03:27:29 PM 40.2580 -108.3030 280° West 474 545 36,700 1,083 Climbing FlightAware ADS-B
Mon 03:27:58 PM 40.2690 -108.3960 279° West 471 542 37,200 806 Climbing FlightAware ADS-B
Mon 03:28:36 PM 40.2800 -108.4820 280° West 469 540 37,600 658 Climbing FlightAware ADS-B
Mon 03:29:11 PM 40.2950 -108.5960 280° West 467 537 38,000 358 Climbing FlightAware ADS-B
Mon 03:29:43 PM 40.3040 -108.6690 279° West 469 540 38,000  Level FlightAware ADS-B
Mon 03:30:23 PM 40.3200 -108.8020 279° West 470 541 38,000  Level FlightAware ADS-B
Mon 03:30:57 PM 40.3330 -108.9000 280° West 469 540 38,000  Level FlightAware ADS-B
Mon 03:31:27 PM 40.3430 -108.9830 279° West 469 540 38,000  Level FlightAware ADS-B
Mon 03:32:03 PM 40.3550 -109.0850 279° West 469 540 38,000  Level FlightAware ADS-B
Mon 03:32:43 PM 40.3660 -109.1770 279° West 470 541 38,000  Level FlightAware ADS-B
Mon 03:33:18 PM 40.3800 -109.2940 279° West 470 541 38,000  Level FlightAware ADS-B
Mon 03:33:51 PM 40.3910 -109.3840 279° West 467 537 38,000  Level FlightAware ADS-B
Mon 03:34:28 PM 40.4030 -109.4890 279° West 468 539 38,000  Level FlightAware ADS-B
Mon 03:35:08 PM 40.4140 -109.5770 279° West 469 540 38,000  Level FlightAware ADS-B
Mon 03:35:44 PM 40.4270 -109.6920 278° West 466 536 38,000  Level FlightAware ADS-B
Mon 03:36:15 PM 40.4370 -109.7760 279° West 467 537 38,000  Level FlightAware ADS-B
Mon 03:37:11 PM 40.4540 -109.9290 278° West 468 539 38,000  Level FlightAware ADS-B
Mon 03:37:39 PM 40.4650 -110.0230 279° West 466 536 38,000  Level FlightAware ADS-B
Mon 03:38:20 PM 40.4783 -110.1420 278° West 465 535 38,000  Level FlightAware ADS-B
Mon 03:38:50 PM 40.4879 -110.2270 278° West 465 535 38,000  Level FlightAware ADS-B
Mon 03:39:21 PM 40.4971 -110.3110 278° West 465 535 38,000  Level FlightAware ADS-B
Mon 03:39:51 PM 40.5064 -110.3960 278° West 464 534 38,000  Level FlightAware ADS-B
Mon 03:40:21 PM 40.5155 -110.4790 278° West 464 534 38,000  Level FlightAware ADS-B
Mon 03:40:51 PM 40.5247 -110.5630 278° West 466 536 38,000  Level FlightAware ADS-B
Mon 03:41:22 PM 40.5340 -110.6500 278° West 467 537 38,000  Level FlightAware ADS-B
Mon 03:41:53 PM 40.5431 -110.7360 278° West 467 537 38,000  Level FlightAware ADS-B
Mon 03:42:23 PM 40.5522 -110.8220 278° West 466 536 38,000  Level FlightAware ADS-B
Mon 03:42:59 PM 40.5626 -110.9210 278° West 466 536 38,000  Level FlightAware ADS-B
Mon 03:43:32 PM 40.5723 -111.0130 278° West 465 535 38,000  Level FlightAware ADS-B
Mon 03:44:02 PM 40.5811 -111.0980 278° West 463 533 38,000  Level FlightAware ADS-B
Mon 03:44:33 PM 40.5898 -111.1820 278° West 464 534 38,000  Level FlightAware ADS-B
Mon 03:45:05 PM 40.5990 -111.2740 278° West 466 536 38,000  Level FlightAware ADS-B
Mon 03:45:36 PM 40.6077 -111.3590 278° West 464 534 38,000  Level FlightAware ADS-B
Mon 03:46:06 PM 40.6162 -111.4440 278° West 464 534 38,000  Level FlightAware ADS-B
Mon 03:46:37 PM 40.6247 -111.5300 277° West 463 533 38,000  Level FlightAware ADS-B
Mon 03:47:07 PM 40.6332 -111.6150 278° West 463 533 38,000  Level FlightAware ADS-B
Mon 03:47:38 PM 40.6415 -111.7000 277° West 464 534 38,000  Level FlightAware ADS-B
Mon 03:48:09 PM 40.6500 -111.7880 277° West 466 536 38,000  Level FlightAware ADS-B
Mon 03:48:39 PM 40.6581 -111.8710 277° West 460 529 38,000  Level FlightAware ADS-B
Mon 03:49:10 PM 40.6664 -111.9570 277° West 460 529 38,000  Level FlightAware ADS-B
Mon 03:49:40 PM 40.6743 -112.0410 277° West 460 529 38,000  Level FlightAware ADS-B
Mon 03:50:11 PM 40.6822 -112.1260 277° West 460 529 38,000  Level FlightAware ADS-B
Mon 03:50:34 PM 40.6866 -112.1890 275° West 458 527 38,000  Level FlightAware ADS-B
Mon 03:51:04 PM 40.6895 -112.2720 273° West 457 526 38,000  Level FlightAware ADS-B
Mon 03:51:34 PM 40.6910 -112.3570 271° West 457 526 38,000  Level FlightAware ADS-B
Mon 03:52:04 PM 40.6923 -112.4410 271° West 456 525 38,000  Level FlightAware ADS-B
Mon 03:52:35 PM 40.6936 -112.5250 271° West 455 524 38,000  Level FlightAware ADS-B
Mon 03:53:06 PM 40.6957 -112.6100 272° West 455 524 38,000  Level FlightAware ADS-B
Mon 03:53:37 PM 40.6989 -112.6970 273° West 451 519 38,000  Level FlightAware ADS-B
Mon 03:54:08 PM 40.7016 -112.7820 272° West 449 517 38,000  Level FlightAware ADS-B
Mon 03:54:38 PM 40.7040 -112.8640 272° West 449 517 38,000  Level FlightAware ADS-B
Mon 03:55:15 PM 40.7068 -112.9640 272° West 449 517 38,000  Level FlightAware ADS-B
Mon 03:55:54 PM 40.7097 -113.0710 272° West 448 516 38,000  Level FlightAware ADS-B
Mon 03:56:52 PM 40.7137 -113.2280 272° West 448 516 38,000  Level FlightAware ADS-B
Mon 03:57:22 PM 40.7158 -113.3110 272° West 446 513 38,000  Level FlightAware ADS-B
Mon 03:57:53 PM 40.7179 -113.3950 272° West 445 512 38,000  Level FlightAware ADS-B
Mon 03:58:24 PM 40.7199 -113.4760 272° West 444 511 38,000  Level FlightAware ADS-B
Mon 03:59:14 PM 40.7230 -113.6140 272° West 445 512 38,000  Level FlightAware ADS-B
Mon 03:59:45 PM 40.7248 -113.6960 272° West 446 513 38,000  Level FlightAware ADS-B
Mon 04:00:12 PM 40.7292 -113.7700 275° West 454 522 38,000  Level FlightAware ADS-B
Mon 04:00:42 PM 40.7398 -113.8540 279° West 460 529 38,000  Level FlightAware ADS-B
Mon 04:01:18 PM 40.7535 -113.9510 281° West 460 529 38,000  Level FlightAware ADS-B
Mon 04:01:50 PM 40.7657 -114.0380 281° West 458 527 38,000  Level FlightAware ADS-B
Mon 04:02:21 PM 40.7777 -114.1250 280° West 456 525 38,000  Level FlightAware ADS-B
Mon 04:02:52 PM 40.7893 -114.2090 280° West 456 525 38,000  Level FlightAware ADS-B
Mon 04:03:25 PM 40.7940 -114.2530 278° West 457 526 38,000  Level FlightAware ADS-B
Mon 04:03:59 PM 40.8143 -114.3910 281° West 457 526 38,000  Level FlightAware ADS-B
Mon 04:04:29 PM 40.8255 -114.4730 280° West 457 526 38,000  Level FlightAware ADS-B
Mon 04:05:00 PM 40.8370 -114.5590 280° West 458 527 38,000  Level FlightAware ADS-B
Mon 04:05:30 PM 40.8481 -114.6410 280° West 458 527 38,000  Level FlightAware ADS-B
Mon 04:06:24 PM 40.8590 -114.7300 279° West 457 526 38,000  Level FlightAware ADS-B
Mon 04:06:50 PM 40.8774 -114.8610 281° West 458 527 38,000  Level FlightAware ADS-B
Mon 04:07:36 PM 40.8820 -114.8980 279° West 457 526 38,000  Level FlightAware ADS-B
Mon 04:08:12 PM 40.8930 -114.9820 280° West 457 526 38,000  Level FlightAware ADS-B
Mon 04:08:48 PM 40.9040 -115.0670 280° West 457 526 38,000  Level FlightAware ADS-B
Mon 04:09:24 PM 40.9160 -115.1510 281° West 457 526 38,000  Level FlightAware ADS-B
Mon 04:09:38 PM 40.9368 -115.3190 279° West 451 519 38,000  Level FlightAware ADS-B
Mon 04:10:11 PM 40.9482 -115.4090 280° West 452 520 38,000  Level FlightAware ADS-B
Mon 04:10:46 PM 40.9603 -115.5050 280° West 452 520 38,000  Level FlightAware ADS-B
Mon 04:11:36 PM 40.9570 -115.4600 96° East 457 526 38,000  Level FlightAware ADS-B
Mon 04:12:34 PM 40.9750 -115.5960 280° West 457 526 38,000  Level FlightAware ADS-B
Mon 04:13:10 PM 40.9860 -115.6810 280° West 457 526 38,000  Level FlightAware ADS-B
Mon 04:13:49 PM 40.9980 -115.7720 280° West 457 526 38,000  Level FlightAware ADS-B
Mon 04:14:07 PM 41.0276 -116.0500 278° West 450 518 38,000  Level FlightAware ADS-B
Mon 04:19:52 PM 41.1370 -116.9930 279° West 456 525 38,000  Level FlightAware ADS-B
Mon 04:20:28 PM 41.1490 -117.0930 279° West 456 525 38,000  Level FlightAware ADS-B
Mon 04:21:01 PM 41.1590 -117.1840 278° West 457 526 38,000  Level FlightAware ADS-B
Mon 04:21:38 PM 41.1700 -117.2860 278° West 458 527 38,000  Level FlightAware ADS-B
Mon 04:22:15 PM 41.1810 -117.3890 278° West 461 531 38,000  Level FlightAware ADS-B
Mon 04:22:46 PM 41.1910 -117.4800 278° West 462 532 38,000  Level FlightAware ADS-B
Mon 04:23:26 PM 41.2030 -117.5890 278° West 461 531 38,000  Level FlightAware ADS-B
Mon 04:23:54 PM 41.2110 -117.6680 278° West 463 533 38,000  Level FlightAware ADS-B
Mon 04:24:33 PM 41.2220 -117.7750 278° West 461 531 38,000  Level FlightAware ADS-B
Mon 04:25:10 PM 41.2330 -117.8810 278° West 460 529 38,000  Level FlightAware ADS-B
Mon 04:25:42 PM 41.2430 -117.9710 278° West 461 531 38,000  Level FlightAware ADS-B
Mon 04:26:18 PM 41.2530 -118.0720 278° West 461 531 38,000  Level FlightAware ADS-B
Mon 04:26:54 PM 41.2630 -118.1700 278° West 460 529 38,000  Level FlightAware ADS-B
Mon 04:27:30 PM 41.2730 -118.2740 277° West 461 531 38,000  Level FlightAware ADS-B
Mon 04:28:02 PM 41.2820 -118.3580 278° West 458 527 38,000  Level FlightAware ADS-B
Mon 04:28:34 PM 41.2900 -118.4410 277° West 456 525 38,000  Level FlightAware ADS-B
Mon 04:29:10 PM 41.3000 -118.5410 278° West 463 533 38,000  Level FlightAware ADS-B
Mon 04:29:46 PM 41.3090 -118.6380 277° West 467 537 38,000  Level FlightAware ADS-B
Mon 04:30:42 PM 41.3260 -118.8070 278° West 469 540 38,000  Level FlightAware ADS-B
Mon 04:31:13 PM 41.3340 -118.8920 277° West 473 544 38,000  Level FlightAware ADS-B
Mon 04:31:55 PM 41.3450 -119.0120 277° West 475 547 38,000  Level FlightAware ADS-B
Mon 04:32:25 PM 41.3540 -119.1030 278° West 474 545 38,000  Level FlightAware ADS-B
Mon 04:33:11 PM 41.3660 -119.2360 277° West 471 542 38,000  Level FlightAware ADS-B
Mon 04:33:48 PM 41.3750 -119.3410 277° West 469 540 38,000  Level FlightAware ADS-B
Mon 04:34:11 PM 41.3820 -119.4100 278° West 470 541 38,000  Level FlightAware ADS-B
Mon 04:34:48 PM 41.3900 -119.5060 276° West 471 542 38,000  Level FlightAware ADS-B
Mon 04:35:24 PM 41.4000 -119.6170 277° West 465 535 38,000  Level FlightAware ADS-B
Mon 04:36:00 PM 41.4090 -119.7210 277° West 465 535 38,000  Level FlightAware ADS-B
Mon 04:36:31 PM 41.4160 -119.8030 277° West 464 534 38,000  Level FlightAware ADS-B
Mon 04:37:07 PM 41.4250 -119.9070 277° West 459 528 38,000  Level FlightAware ADS-B
Mon 04:37:43 PM 41.4410 -120.0060 282° West 470 541 38,000  Level FlightAware ADS-B
Mon 04:38:20 PM 41.4710 -120.0990 293° West 475 547 38,000  Level FlightAware ADS-B
Mon 04:38:55 PM 41.5130 -120.1990 299° West 474 545 38,000  Level FlightAware ADS-B
Mon 04:39:26 PM 41.5320 -120.2800 287° West 470 541 38,000  Level FlightAware ADS-B
Mon 04:40:02 PM 41.5550 -120.3810 287° West 478 550 38,000  Level FlightAware ADS-B
Mon 04:40:36 PM 41.5770 -120.4800 287° West 478 550 38,000  Level FlightAware ADS-B
Mon 04:41:12 PM 41.5990 -120.5790 287° West 477 549 38,000  Level FlightAware ADS-B
Mon 04:41:49 PM 41.6220 -120.6840 286° West 466 536 38,000  Level FlightAware ADS-B
Mon 04:42:19 PM 41.6400 -120.7660 286° West 469 540 38,000  Level FlightAware ADS-B
Mon 04:42:57 PM 41.6610 -120.8630 286° West 466 536 38,000  Level FlightAware ADS-B
Mon 04:43:31 PM 41.6840 -120.9670 287° West 466 536 38,000  Level FlightAware ADS-B
Mon 04:44:07 PM 41.7050 -121.0670 286° West 468 539 38,000  Level FlightAware ADS-B
Mon 04:44:42 PM 41.7250 -121.1620 286° West 468 539 38,000  Level FlightAware ADS-B
Mon 04:44:59 PM 41.7290 -121.2120 276° West 459 528 38,000  Level FlightAware ADS-B
Mon 04:45:28 PM 41.7230 -121.2920 264° West 451 519 38,000  Level FlightAware ADS-B
Mon 04:46:06 PM 41.7110 -121.3850 260° West 449 517 38,000  Level FlightAware ADS-B
Mon 04:46:48 PM 41.6950 -121.4980 259° West 449 517 38,000  Level FlightAware ADS-B
Mon 04:47:25 PM 41.6790 -121.6080 259° West 449 517 38,000  Level FlightAware ADS-B
Mon 04:48:01 PM 41.6650 -121.7100 260° West 454 522 38,000  Level FlightAware ADS-B
Mon 04:48:35 PM 41.6510 -121.8030 259° West 452 520 38,000  Level FlightAware ADS-B
Mon 04:49:09 PM 41.6370 -121.8950 259° West 449 517 38,000  Level FlightAware ADS-B
Mon 04:49:46 PM 41.6220 -121.9930 258° West 447 514 38,000  Level FlightAware ADS-B
Mon 04:50:18 PM 41.6060 -122.0800 256° West 446 513 38,000  Level FlightAware ADS-B
Mon 04:50:54 PM 41.5880 -122.1730 256° West 443 510 38,000  Level FlightAware ADS-B
Mon 04:51:30 PM 41.5630 -122.2700 251° West 447 514 38,000  Level FlightAware ADS-B
Mon 04:52:04 PM 41.5500 -122.3610 259° West 450 518 38,000  Level FlightAware ADS-B
Mon 04:52:39 PM 41.5350 -122.4540 258° West 449 517 38,000  Level FlightAware ADS-B
Mon 04:53:15 PM 41.5200 -122.5360 256° West 440 506 38,000  Level FlightAware ADS-B
Mon 04:53:58 PM 41.4970 -122.6550 256° West 439 505 38,000  Level FlightAware ADS-B
Mon 04:54:40 PM 41.4790 -122.7540 256° West 439 505 38,000  Level FlightAware ADS-B
Mon 04:55:11 PM 41.4570 -122.8600 255° West 439 505 38,000  Level FlightAware ADS-B
Mon 04:55:56 PM 41.4360 -122.9720 256° West 433 498 38,000  Level FlightAware ADS-B
Mon 04:56:28 PM 41.4200 -123.0530 255° West 437 503 38,000  Level FlightAware ADS-B
Mon 04:57:07 PM 41.4000 -123.1550 255° West 436 502 38,000  Level FlightAware ADS-B
Mon 04:57:48 PM 41.3810 -123.2500 255° West 438 504 38,000  Level FlightAware ADS-B
Mon 04:58:28 PM 41.3570 -123.3680 255° West 439 505 38,000  Level FlightAware ADS-B
Mon 04:59:03 PM 41.3400 -123.4580 256° West 437 503 38,000  Level FlightAware ADS-B
Mon 04:59:54 PM 41.3170 -123.5700 255° West 436 502 38,000  Level FlightAware ADS-B
Mon 05:00:29 PM 41.2960 -123.6760 255° West 438 504 38,000  Level FlightAware ADS-B
Mon 05:00:59 PM 41.2800 -123.7550 255° West 441 507 38,000  Level FlightAware ADS-B
Mon 05:01:38 PM 41.2570 -123.8640 254° West 441 507 38,000  Level FlightAware ADS-B
Mon 05:02:35 PM 41.2300 -123.9960 255° West 442 509 38,000  Level FlightAware ADS-B
Mon 05:03:12 PM 41.2120 -124.0780 254° West 442 509 38,000  Level FlightAware ADS-B
Mon 05:03:48 PM 41.1950 -124.1580 254° West 442 509 38,000  Level FlightAware ADS-B
Mon 05:04:32 PM 41.1630 -124.3210 255° West 442 509 38,000  Level FlightAware ADS-B
Mon 05:05:08 PM 41.1440 -124.4130 255° West 447 514 38,000  Level FlightAware ADS-B
Mon 05:05:45 PM 41.1350 -124.5010 262° West 448 516 38,000  Level FlightAware ADS-B
Mon 05:06:21 PM 41.1270 -124.5840 263° West 448 516 38,000  Level FlightAware ADS-B
Mon 05:06:57 PM 41.1190 -124.6680 263° West 448 516 38,000  Level FlightAware ADS-B
Mon 05:07:32 PM 41.1120 -124.7490 263° West 448 516 38,000  Level FlightAware ADS-B
Mon 05:08:06 PM 41.1050 -124.8280 263° West 448 516 38,000  Level FlightAware ADS-B
Mon 05:08:42 PM 41.0970 -124.9120 263° West 448 516 38,000  Level FlightAware ADS-B
Mon 05:09:18 PM 41.0890 -124.9950 263° West 448 516 38,000  Level FlightAware ADS-B
Mon 05:09:56 PM 41.0810 -125.0830 263° West 448 516 38,000  Level FlightAware ADS-B
Mon 05:10:32 PM 41.0730 -125.1670 263° West 448 516 38,000  Level FlightAware ADS-B
Mon 05:11:08 PM 41.0660 -125.2500 264° West 448 516 38,000  Level FlightAware ADS-B
Mon 05:11:49 PM 41.0570 -125.3450 263° West 448 516 38,000  Level FlightAware ADS-B
Mon 05:12:25 PM 41.0490 -125.4290 263° West 448 516 38,000  Level FlightAware ADS-B
Mon 05:13:01 PM 41.0410 -125.5120 263° West 448 516 38,000  Level FlightAware ADS-B
Mon 05:13:37 PM 41.0340 -125.5960 264° West 448 516 38,000  Level FlightAware ADS-B
Mon 05:14:14 PM 41.0260 -125.6820 263° West 448 516 38,000  Level FlightAware ADS-B
Mon 05:14:50 PM 41.0180 -125.7650 263° West 448 516 38,000  Level FlightAware ADS-B
Mon 05:16:00 PM 42.1864 -125.6175 263° West 461 531 38,000  Level Seattle Center
Mon 05:17:01 PM 42.2878 -125.7217 323° Northwest 458 527 38,000  Level Seattle Center
Mon 05:18:02 PM 42.3883 -125.8281 322° Northwest 459 528 38,000  Level Seattle Center
Mon 05:19:03 PM 42.4886 -125.9353 322° Northwest 459 528 38,000  Level Seattle Center
Mon 05:20:04 PM 42.5892 -126.0433 322° Northwest 461 531 38,000 -49 Level Seattle Center
Mon 05:21:05 PM 42.6903 -126.1508 322° Northwest 463 533 37,900 -49 Descending Seattle Center
Mon 05:22:06 PM 42.7594 -126.2931 304° West 453 521 37,900 26 Level Seattle Center
Mon 05:24:00 PM 42.8666 -126.5901 296° West  Level FlightAware Approximate
Mon 05:24:55 PM 42.9167 -126.7167 298° West 448 516 38,000  Level Oakland Oceanic (ODAPS)
Mon 05:28:03 PM 43.1000 -127.2000 297° West 447 514 38,000  Level Oakland Oceanic (ODAPS)
Mon 05:30:53 PM 43.2670 -127.6410 297° West 38,000  Level FlightAware ADS-B
Mon 05:31:00 PM 43.2642 -127.6369 297° West 448 516 38,000  Level FlightAware Transoceanic
Mon 05:33:00 PM 43.3880 -127.9735 297° West  Level FlightAware Approximate
Mon 05:34:00 PM 43.4408 -128.1175 297° West 447 514 38,000  Level FlightAware Transoceanic
Mon 05:35:00 PM 43.4969 -128.2714 297° West 447 514 38,000  Level FlightAware Transoceanic
Mon 05:36:00 PM 43.5528 -128.4256 297° West 447 514 38,000  Level FlightAware Transoceanic
Mon 05:37:00 PM 43.6084 -128.5801 296° West 447 514 38,000  Level FlightAware Transoceanic
Mon 05:38:00 PM 43.6639 -128.7349 296° West 447 514 38,000  Level FlightAware Transoceanic
Mon 05:39:00 PM 43.7192 -128.8899 296° West 447 514 38,000  Level FlightAware Transoceanic
Mon 05:40:00 PM 43.7742 -129.0453 296° West 447 514 38,000  Level FlightAware Transoceanic
Mon 05:41:00 PM 43.8290 -129.2009 296° West 447 514 38,000  Level FlightAware Transoceanic
Mon 05:42:00 PM 43.8837 -129.3568 296° West 447 514 38,000  Level FlightAware Transoceanic
Mon 05:42:48 PM 43.8667 -129.3167 296° West 447 514 38,000  Level Oakland Oceanic (ODAPS)
Mon 05:43:00 PM 43.9381 -129.5130 296° West 447 514 38,000  Level FlightAware Transoceanic
Mon 05:44:00 PM 43.9922 -129.6695 296° West 447 514 38,000  Level FlightAware Transoceanic
Mon 05:45:00 PM 44.0462 -129.8263 296° West 447 514 38,000  Level FlightAware Transoceanic
Mon 05:46:00 PM 44.1000 -129.9833 289° West 447 514 38,000  Level FlightAware Transoceanic
Mon 05:47:00 PM 44.1400 -130.1501 288° West 447 514 38,000  Level FlightAware Transoceanic
Mon 05:48:00 PM 44.1798 -130.3171 288° West 447 514 38,000  Level FlightAware Transoceanic
Mon 05:49:00 PM 44.2193 -130.4843 288° West 447 514 38,000  Level FlightAware Transoceanic
Mon 05:49:20 PM 44.1000 -129.9833 289° West 455 524 38,000  Level Oakland Oceanic (ODAPS)
Mon 05:50:00 PM 44.2586 -130.6518 288° West 447 514 38,000  Level FlightAware Transoceanic
Mon 05:51:00 PM 44.2977 -130.8194 288° West 447 514 38,000  Level FlightAware Transoceanic
Mon 05:52:00 PM 44.3365 -130.9873 288° West 447 514 38,000  Level FlightAware Transoceanic
Mon 05:53:00 PM 44.3750 -131.1555 288° West 447 514 38,000  Level FlightAware Transoceanic
Mon 05:54:00 PM 44.4133 -131.3238 288° West 447 514 38,000  Level FlightAware Transoceanic
Mon 05:55:00 PM 44.4514 -131.4924 287° West 455 524 38,000  Level FlightAware Transoceanic
Mon 05:55:51 PM 44.4667 -131.5667 287° West 458 527 38,000  Level Oakland Oceanic (ODAPS)
Mon 05:56:00 PM 44.4892 -131.6611 287° West 455 524 38,000  Level FlightAware Transoceanic
Mon 05:57:00 PM 44.5267 -131.8301 287° West 455 524 38,000  Level FlightAware Transoceanic
Mon 05:58:00 PM 44.5641 -131.9993 287° West 455 524 38,000  Level FlightAware Transoceanic
Mon 05:59:00 PM 44.6011 -132.1688 287° West 455 524 38,000  Level FlightAware Transoceanic
Mon 06:00:00 PM 44.6379 -132.3384 287° West 455 524 38,000  Level FlightAware Transoceanic
Mon 06:01:00 PM 44.6745 -132.5083 287° West 455 524 38,000  Level FlightAware Transoceanic
Mon 06:02:00 PM 44.6918 -132.5950 287° West 458 527 38,000  Level FlightAware Transoceanic
Mon 06:03:00 PM 44.7285 -132.7672 287° West 458 527 38,000  Level FlightAware Transoceanic
Mon 06:04:00 PM 44.7648 -132.9396 286° West 458 527 38,000  Level FlightAware Transoceanic
Mon 06:05:00 PM 44.8009 -133.1122 286° West 458 527 38,000  Level FlightAware Transoceanic
Mon 06:06:00 PM 44.8368 -133.2850 286° West 458 527 38,000  Level FlightAware Transoceanic
Mon 06:07:00 PM 44.8724 -133.4580 286° West 458 527 38,000  Level FlightAware Transoceanic
Mon 06:08:00 PM 44.9077 -133.6312 286° West 458 527 38,000  Level FlightAware Transoceanic
Mon 06:09:00 PM 44.9428 -133.8047 286° West 458 527 38,000  Level FlightAware Transoceanic
Mon 06:09:43 PM 44.9667 -133.9667 286° West 469 540 38,000  Level Oakland Oceanic (ODAPS)
Mon 06:10:00 PM 44.9776 -133.9783 286° West 458 527 38,000  Level FlightAware Transoceanic
Mon 06:11:00 PM 45.0121 -134.1522 286° West 458 527 38,000  Level FlightAware Transoceanic
Mon 06:12:00 PM 45.0464 -134.3263 286° West 458 527 38,000  Level FlightAware Transoceanic
Mon 06:13:00 PM 45.0804 -134.5006 285° West 458 527 38,000  Level FlightAware Transoceanic
Mon 06:14:00 PM 45.1141 -134.6751 285° West 458 527 38,000  Level FlightAware Transoceanic
Mon 06:15:00 PM 45.1476 -134.8498 285° West 458 527 38,000  Level FlightAware Transoceanic
Mon 06:16:00 PM 45.1780 -135.0468 285° West 469 540 38,000  Level FlightAware Transoceanic
Mon 06:17:00 PM 45.2122 -135.2276 285° West 469 540 38,000  Level FlightAware Transoceanic
Mon 06:18:00 PM 45.2462 -135.4086 285° West 469 540 38,000  Level FlightAware Transoceanic
Mon 06:19:00 PM 45.2798 -135.5898 285° West 469 540 38,000  Level FlightAware Transoceanic
Mon 06:20:00 PM 45.3132 -135.7712 285° West 469 540 38,000  Level FlightAware Transoceanic
Mon 06:21:00 PM 45.3463 -135.9529 284° West 469 540 38,000  Level FlightAware Transoceanic
Mon 06:22:00 PM 45.3791 -136.1347 284° West 469 540 38,000  Level FlightAware Transoceanic
Mon 06:23:00 PM 45.4116 -136.3168 284° West 469 540 38,000  Level FlightAware Transoceanic
Mon 06:23:36 PM 45.4333 -136.4500 284° West 470 541 38,000  Level Oakland Oceanic (ODAPS)
Mon 06:24:00 PM 45.4438 -136.4991 284° West 469 540 38,000  Level FlightAware Transoceanic
Mon 06:25:00 PM 45.4757 -136.6815 284° West 469 540 38,000  Level FlightAware Transoceanic
Mon 06:26:00 PM 45.5073 -136.8642 284° West 469 540 38,000  Level FlightAware Transoceanic
Mon 06:27:00 PM 45.5387 -137.0471 284° West 469 540 38,000  Level FlightAware Transoceanic
Mon 06:28:00 PM 45.5697 -137.2302 284° West 469 540 38,000  Level FlightAware Transoceanic
Mon 06:29:00 PM 45.6148 -137.5074 283° West 470 541 38,000  Level FlightAware Transoceanic
Mon 06:30:00 PM 45.6441 -137.6842 283° West 470 541 38,000  Level FlightAware Transoceanic
Mon 06:31:00 PM 45.6732 -137.8613 283° West 470 541 38,000  Level FlightAware Transoceanic
Mon 06:32:00 PM 45.7019 -138.0386 283° West 470 541 38,000  Level FlightAware Transoceanic
Mon 06:33:00 PM 45.7304 -138.2160 283° West 470 541 38,000  Level FlightAware Transoceanic
Mon 06:34:00 PM 45.7586 -138.3936 283° West 470 541 38,000  Level FlightAware Transoceanic
Mon 06:35:00 PM 45.7865 -138.5714 283° West 470 541 38,000  Level FlightAware Transoceanic
Mon 06:36:00 PM 45.8142 -138.7494 283° West 470 541 38,000  Level FlightAware Transoceanic
Mon 06:37:00 PM 45.8416 -138.9275 282° West 470 541 38,000 690 Level FlightAware Transoceanic
Mon 06:37:27 PM 45.8500 -138.9500 282° West 467 537 39,000  Climbing Oakland Oceanic (ODAPS)
Mon 06:38:00 PM 45.8687 -139.1058 282° West 470 541 38,000 -645 Descending FlightAware Transoceanic
Mon 06:39:00 PM 45.8955 -139.2843 282° West 470 541 38,000  Level FlightAware Transoceanic
Mon 06:40:00 PM 45.9220 -139.4630 282° West 470 541 38,000  Level FlightAware Transoceanic
Mon 06:41:00 PM 45.9483 -139.6418 282° West 470 541 38,000  Level FlightAware Transoceanic
Mon 06:42:00 PM 45.9743 -139.8208 282° West 470 541 38,000 500 Level FlightAware Transoceanic
Mon 06:43:00 PM 46.0000 -140.0000 265° West 467 537 39,000 811 Climbing FlightAware Transoceanic
Mon 06:43:14 PM 46.0000 -140.0000 265° West 471 542 39,000  Level Oakland Oceanic (ODAPS)
Mon 06:44:00 PM 45.9897 -140.1846 265° West 467 537 39,000  Level FlightAware Transoceanic
Mon 06:45:00 PM 45.9791 -140.3691 265° West 467 537 39,000  Level FlightAware Transoceanic
Mon 06:46:00 PM 45.9682 -140.5535 265° West 467 537 39,000  Level FlightAware Transoceanic
Mon 06:47:00 PM 45.9570 -140.7379 265° West 467 537 39,000  Level FlightAware Transoceanic
Mon 06:48:00 PM 45.9455 -140.9221 265° West 467 537 39,000  Level FlightAware Transoceanic
Mon 06:49:00 PM 45.9324 -141.1268 265° West 471 542 39,000  Level FlightAware Transoceanic
Mon 06:50:00 PM 45.9201 -141.3143 265° West 471 542 39,000  Level FlightAware Transoceanic
Mon 06:51:00 PM 45.9074 -141.5018 264° West 471 542 39,000  Level FlightAware Transoceanic
Mon 06:51:19 PM 45.9000 -141.5333 264° West 473 544 39,000  Level Oakland Oceanic (ODAPS)
Mon 06:52:00 PM 45.8944 -141.6891 264° West 471 542 39,000  Level FlightAware Transoceanic
Mon 06:53:00 PM 45.8812 -141.8764 264° West 471 542 39,000  Level FlightAware Transoceanic
Mon 06:54:00 PM 45.8676 -142.0636 264° West 471 542 39,000  Level FlightAware Transoceanic
Mon 06:55:00 PM 45.8537 -142.2507 264° West 471 542 39,000  Level FlightAware Transoceanic
Mon 06:56:00 PM 45.8396 -142.4377 264° West 471 542 39,000  Level FlightAware Transoceanic
Mon 06:57:00 PM 45.8184 -142.6518 264° West 473 544 39,000  Level FlightAware Transoceanic
Mon 06:58:00 PM 45.8037 -142.8379 263° West 473 544 39,000  Level FlightAware Transoceanic
Mon 06:59:00 PM 45.7887 -143.0239 263° West 473 544 39,000  Level FlightAware Transoceanic
Mon 07:00:00 PM 45.7735 -143.2098 263° West 473 544 39,000  Level FlightAware Transoceanic
Mon 07:01:00 PM 45.7579 -143.3955 263° West 473 544 39,000  Level FlightAware Transoceanic
Mon 07:02:00 PM 45.7420 -143.5812 263° West 473 544 39,000  Level FlightAware Transoceanic
Mon 07:03:00 PM 45.7259 -143.7668 263° West 473 544 39,000  Level FlightAware Transoceanic
Mon 07:04:00 PM 45.7094 -143.9523 263° West 473 544 39,000  Level FlightAware Transoceanic
Mon 07:05:00 PM 45.6926 -144.1376 263° West 473 544 39,000  Level FlightAware Transoceanic
Mon 07:05:11 PM 45.7000 -144.1167 262° West 467 537 39,000  Level Oakland Oceanic (ODAPS)
Mon 07:06:00 PM 45.6755 -144.3228 262° West 473 544 39,000  Level FlightAware Transoceanic
Mon 07:07:00 PM 45.6582 -144.5080 262° West 473 544 39,000  Level FlightAware Transoceanic
Mon 07:08:00 PM 45.6405 -144.6930 262° West 473 544 39,000  Level FlightAware Transoceanic
Mon 07:09:00 PM 45.6226 -144.8779 262° West 473 544 39,000  Level FlightAware Transoceanic
Mon 07:10:00 PM 45.6043 -145.0626 262° West 473 544 39,000  Level FlightAware Transoceanic
Mon 07:11:00 PM 45.5919 -145.2304 262° West 467 537 39,000  Level FlightAware Transoceanic
Mon 07:12:00 PM 45.5728 -145.4156 262° West 467 537 39,000  Level FlightAware Transoceanic
Mon 07:13:00 PM 45.5534 -145.6007 261° West 467 537 39,000  Level FlightAware Transoceanic
Mon 07:14:00 PM 45.5338 -145.7857 261° West 467 537 39,000  Level FlightAware Transoceanic
Mon 07:15:00 PM 45.5138 -145.9705 261° West 467 537 39,000  Level FlightAware Transoceanic
Mon 07:16:00 PM 45.4935 -146.1552 261° West 467 537 39,000  Level FlightAware Transoceanic
Mon 07:17:00 PM 45.4730 -146.3397 261° West 467 537 39,000  Level FlightAware Transoceanic
Mon 07:18:00 PM 45.4521 -146.5241 261° West 467 537 39,000  Level FlightAware Transoceanic
Mon 07:19:00 PM 45.4310 -146.7084 261° West 467 537 39,000  Level FlightAware Transoceanic
Mon 07:19:03 PM 45.4333 -146.6167 261° West 445 512 39,000  Level Oakland Oceanic (ODAPS)
Mon 07:20:00 PM 45.4095 -146.8925 261° West 467 537 39,000  Level FlightAware Transoceanic
Mon 07:21:00 PM 45.3878 -147.0765 260° West 467 537 39,000  Level FlightAware Transoceanic
Mon 07:22:00 PM 45.3657 -147.2604 260° West 467 537 39,000  Level FlightAware Transoceanic
Mon 07:23:00 PM 45.3434 -147.4441 260° West 467 537 39,000  Level FlightAware Transoceanic
Mon 07:24:00 PM 45.3208 -147.6277 260° West 467 537 39,000  Level FlightAware Transoceanic
Mon 07:25:00 PM 45.3138 -147.6370 260° West 445 512 39,000  Level FlightAware Transoceanic
Mon 07:26:00 PM 45.2930 -147.8066 260° West 445 512 39,000  Level FlightAware Transoceanic
Mon 07:27:00 PM 45.2720 -147.9762 260° West 445 512 39,000  Level FlightAware Transoceanic
Mon 07:28:00 PM 45.2507 -148.1455 260° West 445 512 39,000  Level FlightAware Transoceanic
Mon 07:29:00 PM 45.2291 -148.3148 260° West 445 512 39,000  Level FlightAware Transoceanic
Mon 07:30:00 PM 45.2074 -148.4839 260° West 445 512 39,000  Level FlightAware Transoceanic
Mon 07:31:00 PM 45.1853 -148.6529 259° West 445 512 39,000  Level FlightAware Transoceanic
Mon 07:32:00 PM 45.1630 -148.8218 259° West 445 512 39,000  Level FlightAware Transoceanic
Mon 07:32:56 PM 45.1333 -149.0167 259° West 455 524 39,000  Level Oakland Oceanic (ODAPS)
Mon 07:33:00 PM 45.1405 -148.9905 259° West 445 512 39,000  Level FlightAware Transoceanic
Mon 07:34:00 PM 45.1177 -149.1591 259° West 445 512 39,000  Level FlightAware Transoceanic
Mon 07:35:00 PM 45.0946 -149.3275 259° West 445 512 39,000  Level FlightAware Transoceanic
Mon 07:36:00 PM 45.0714 -149.4959 259° West 445 512 39,000  Level FlightAware Transoceanic
Mon 07:37:00 PM 45.0478 -149.6640 259° West 445 512 39,000  Level FlightAware Transoceanic
Mon 07:38:00 PM 45.0240 -149.8321 259° West 445 512 39,000  Level FlightAware Transoceanic
Mon 07:38:29 PM 45.0000 -150.0000 266° West 464 534 39,000  Level Oakland Oceanic (ODAPS)
Mon 07:39:00 PM 44.9897 -150.1845 265° West 455 524 39,000  Level FlightAware Transoceanic
Mon 07:40:00 PM 44.9791 -150.3689 265° West 455 524 39,000  Level FlightAware Transoceanic
Mon 07:41:00 PM 44.9682 -150.5532 265° West 455 524 39,000  Level FlightAware Transoceanic
Mon 07:42:00 PM 44.9570 -150.7375 265° West 455 524 39,000  Level FlightAware Transoceanic
Mon 07:43:00 PM 44.9455 -150.9217 265° West 455 524 39,000  Level FlightAware Transoceanic
Mon 07:44:00 PM 44.9350 -151.0861 265° West 464 534 39,000  Level FlightAware Transoceanic
Mon 07:45:00 PM 44.9232 -151.2669 265° West 464 534 39,000  Level FlightAware Transoceanic
Mon 07:46:00 PM 44.9110 -151.4476 265° West 464 534 39,000  Level FlightAware Transoceanic
Mon 07:46:47 PM 44.9167 -151.4667 264° West 468 539 39,000  Level Oakland Oceanic (ODAPS)
Mon 07:47:00 PM 44.8986 -151.6282 264° West 464 534 39,000  Level FlightAware Transoceanic
Mon 07:48:00 PM 44.8859 -151.8087 264° West 464 534 39,000  Level FlightAware Transoceanic
Mon 07:49:00 PM 44.8730 -151.9892 264° West 464 534 39,000  Level FlightAware Transoceanic
Mon 07:50:00 PM 44.8597 -152.1695 264° West 464 534 39,000  Level FlightAware Transoceanic
Mon 07:51:00 PM 44.8462 -152.3498 264° West 464 534 39,000  Level FlightAware Transoceanic
Mon 07:52:00 PM 44.8324 -152.5300 264° West 464 534 39,000  Level FlightAware Transoceanic
Mon 07:53:00 PM 44.8353 -152.5698 264° West 468 539 39,000  Level FlightAware Transoceanic
Mon 07:54:00 PM 44.8207 -152.7533 264° West 468 539 39,000  Level FlightAware Transoceanic
Mon 07:55:00 PM 44.8058 -152.9368 263° West 468 539 39,000  Level FlightAware Transoceanic
Mon 07:56:00 PM 44.7907 -153.1201 263° West 468 539 39,000  Level FlightAware Transoceanic
Mon 07:57:00 PM 44.7752 -153.3034 263° West 468 539 39,000  Level FlightAware Transoceanic
Mon 07:58:00 PM 44.7594 -153.4865 263° West 468 539 39,000  Level FlightAware Transoceanic
Mon 07:59:00 PM 44.7434 -153.6696 263° West 468 539 39,000  Level FlightAware Transoceanic
Mon 08:00:00 PM 44.7270 -153.8525 263° West 468 539 39,000  Level FlightAware Transoceanic
Mon 08:00:39 PM 44.7167 -153.9500 263° West 471 542 39,000  Level Oakland Oceanic (ODAPS)
Mon 08:01:00 PM 44.7104 -154.0354 263° West 468 539 39,000  Level FlightAware Transoceanic
Mon 08:02:00 PM 44.6935 -154.2181 263° West 468 539 39,000  Level FlightAware Transoceanic
Mon 08:03:00 PM 44.6762 -154.4008 262° West 468 539 39,000  Level FlightAware Transoceanic
Mon 08:04:00 PM 44.6587 -154.5833 262° West 468 539 39,000  Level FlightAware Transoceanic
Mon 08:05:00 PM 44.6409 -154.7657 262° West 468 539 39,000  Level FlightAware Transoceanic
Mon 08:06:00 PM 44.6228 -154.9480 262° West 468 539 39,000  Level FlightAware Transoceanic
Mon 08:07:00 PM 44.5954 -155.2072 262° West 471 542 39,000  Level FlightAware Transoceanic
Mon 08:08:00 PM 44.5769 -155.3864 262° West 471 542 39,000  Level FlightAware Transoceanic
Mon 08:09:00 PM 44.5582 -155.5654 262° West 471 542 39,000  Level FlightAware Transoceanic
Mon 08:10:00 PM 44.5392 -155.7444 261° West 471 542 39,000  Level FlightAware Transoceanic
Mon 08:11:00 PM 44.5199 -155.9232 261° West 471 542 39,000  Level FlightAware Transoceanic
Mon 08:12:00 PM 44.5003 -156.1019 261° West 471 542 39,000  Level FlightAware Transoceanic
Mon 08:13:00 PM 44.4804 -156.2805 261° West 471 542 39,000  Level FlightAware Transoceanic
Mon 08:14:00 PM 44.4603 -156.4589 261° West 471 542 39,000 645 Level FlightAware Transoceanic
Mon 08:14:33 PM 44.4500 -156.4667 261° West 478 550 40,000  Climbing Oakland Oceanic (ODAPS)
Mon 08:15:00 PM 44.4399 -156.6372 261° West 471 542 39,000 -690 Descending FlightAware Transoceanic
Mon 08:16:00 PM 44.4192 -156.8154 261° West 471 542 39,000  Level FlightAware Transoceanic
Mon 08:17:00 PM 44.3983 -156.9935 261° West 471 542 39,000  Level FlightAware Transoceanic
Mon 08:18:00 PM 44.3770 -157.1715 260° West 471 542 39,000  Level FlightAware Transoceanic
Mon 08:19:00 PM 44.3555 -157.3493 260° West 471 542 39,000 500 Level FlightAware Transoceanic
Mon 08:20:00 PM 44.3265 -157.5323 260° West 478 550 40,000 500 Climbing FlightAware Transoceanic
Mon 08:21:00 PM 44.3049 -157.7094 260° West 478 550 40,000  Level FlightAware Transoceanic
Mon 08:22:00 PM 44.2831 -157.8864 260° West 478 550 40,000  Level FlightAware Transoceanic
Mon 08:23:00 PM 44.2610 -158.0633 260° West 478 550 40,000  Level FlightAware Transoceanic
Mon 08:24:00 PM 44.2386 -158.2401 260° West 478 550 40,000  Level FlightAware Transoceanic
Mon 08:25:00 PM 44.2160 -158.4167 260° West 478 550 40,000  Level FlightAware Transoceanic
Mon 08:26:00 PM 44.1931 -158.5932 260° West 478 550 40,000  Level FlightAware Transoceanic
Mon 08:27:00 PM 44.1699 -158.7695 260° West 478 550 40,000  Level FlightAware Transoceanic
Mon 08:28:00 PM 44.1464 -158.9458 259° West 478 550 40,000  Level FlightAware Transoceanic
Mon 08:28:28 PM 44.1333 -159.0333 259° West 492 566 40,000  Level Oakland Oceanic (ODAPS)
Mon 08:29:00 PM 44.1227 -159.1218 259° West 478 550 40,000  Level FlightAware Transoceanic
Mon 08:30:00 PM 44.0987 -159.2977 259° West 478 550 40,000  Level FlightAware Transoceanic
Mon 08:31:00 PM 44.0744 -159.4735 259° West 478 550 40,000  Level FlightAware Transoceanic
Mon 08:32:00 PM 44.0499 -159.6492 259° West 478 550 40,000  Level FlightAware Transoceanic
Mon 08:33:00 PM 44.0251 -159.8247 259° West 478 550 40,000  Level FlightAware Transoceanic
Mon 08:34:00 PM 43.9891 -160.1950 265° West 492 566 40,000  Level FlightAware Transoceanic
Mon 08:34:24 PM 44.0000 -160.0000 266° West 506 582 40,000  Level Oakland Oceanic (ODAPS)
Mon 08:35:00 PM 43.9778 -160.3900 265° West 492 566 40,000  Level FlightAware Transoceanic
Mon 08:36:00 PM 43.9662 -160.5849 265° West 492 566 40,000  Level FlightAware Transoceanic
Mon 08:37:00 PM 43.9543 -160.7796 265° West 492 566 40,000  Level FlightAware Transoceanic
Mon 08:38:00 PM 43.9421 -160.9744 265° West 492 566 40,000  Level FlightAware Transoceanic
Mon 08:39:00 PM 43.9295 -161.1690 265° West 492 566 40,000  Level FlightAware Transoceanic
Mon 08:40:00 PM 43.9183 -161.3379 265° West 506 582 40,000  Level FlightAware Transoceanic
Mon 08:41:00 PM 43.9054 -161.5287 265° West 506 582 40,000  Level FlightAware Transoceanic
Mon 08:42:00 PM 43.8921 -161.7194 264° West 506 582 40,000  Level FlightAware Transoceanic
Mon 08:43:00 PM 43.8786 -161.9100 264° West 506 582 40,000  Level FlightAware Transoceanic
Mon 08:43:02 PM 43.9000 -161.6833 264° West 512 589 40,000  Level Oakland Oceanic (ODAPS)
Mon 08:44:00 PM 43.8647 -162.1006 264° West 506 582 40,000  Level FlightAware Transoceanic
Mon 08:45:00 PM 43.8504 -162.2911 264° West 506 582 40,000  Level FlightAware Transoceanic
Mon 08:46:00 PM 43.8359 -162.4814 264° West 506 582 40,000  Level FlightAware Transoceanic
Mon 08:47:00 PM 43.8211 -162.6717 264° West 506 582 40,000  Level FlightAware Transoceanic
Mon 08:48:00 PM 43.8059 -162.8619 264° West 506 582 40,000  Level FlightAware Transoceanic
Mon 08:49:00 PM 43.7949 -163.0529 263° West 512 589 40,000  Level FlightAware Transoceanic
Mon 08:50:00 PM 43.7785 -163.2482 263° West 512 589 40,000  Level FlightAware Transoceanic
Mon 08:51:00 PM 43.7618 -163.4433 263° West 512 589 40,000  Level FlightAware Transoceanic
Mon 08:52:00 PM 43.7448 -163.6384 263° West 512 589 40,000  Level FlightAware Transoceanic
Mon 08:53:00 PM 43.7275 -163.8333 263° West 512 589 40,000  Level FlightAware Transoceanic
Mon 08:54:00 PM 43.7098 -164.0281 263° West 512 589 40,000  Level FlightAware Transoceanic
Mon 08:55:00 PM 43.6918 -164.2228 263° West 512 589 40,000  Level FlightAware Transoceanic
Mon 08:56:00 PM 43.6734 -164.4173 263° West 512 589 40,000  Level FlightAware Transoceanic
Mon 08:56:34 PM 43.6667 -164.4000 263° West 515 593 40,000  Level Oakland Oceanic (ODAPS)
Mon 08:57:00 PM 43.6548 -164.6118 262° West 512 589 40,000  Level FlightAware Transoceanic
Mon 08:58:00 PM 43.6358 -164.8061 262° West 512 589 40,000  Level FlightAware Transoceanic
Mon 08:59:00 PM 43.6164 -165.0003 262° West 512 589 40,000  Level FlightAware Transoceanic
Mon 09:00:00 PM 43.5968 -165.1944 262° West 512 589 40,000  Level FlightAware Transoceanic
Mon 09:01:00 PM 43.5768 -165.3884 262° West 512 589 40,000  Level FlightAware Transoceanic
Mon 09:02:00 PM 43.5565 -165.5822 262° West 512 589 40,000  Level FlightAware Transoceanic
Mon 09:03:00 PM 43.5309 -165.7626 262° West 515 593 40,000  Level FlightAware Transoceanic
Mon 09:04:00 PM 43.5102 -165.9568 262° West 515 593 40,000  Level FlightAware Transoceanic
Mon 09:05:00 PM 43.4891 -166.1508 261° West 515 593 40,000  Level FlightAware Transoceanic
Mon 09:06:00 PM 43.4677 -166.3447 261° West 515 593 40,000  Level FlightAware Transoceanic
Mon 09:07:00 PM 43.4460 -166.5384 261° West 515 593 40,000  Level FlightAware Transoceanic
Mon 09:08:00 PM 43.4240 -166.7320 261° West 515 593 40,000  Level FlightAware Transoceanic
Mon 09:09:00 PM 43.4016 -166.9255 261° West 515 593 40,000  Level FlightAware Transoceanic
Mon 09:10:00 PM 43.3790 -167.1188 261° West 515 593 40,000  Level FlightAware Transoceanic
Mon 09:11:00 PM 43.3559 -167.3120 261° West 515 593 40,000  Level FlightAware Transoceanic
Mon 09:12:00 PM 43.3326 -167.5050 260° West 515 593 40,000  Level FlightAware Transoceanic
Mon 09:12:31 PM 43.3833 -167.1000 261° West 520 598 40,000  Level Oakland Oceanic (ODAPS)
Mon 09:13:00 PM 43.3090 -167.6978 260° West 515 593 40,000  Level FlightAware Transoceanic
Mon 09:14:00 PM 43.2850 -167.8906 260° West 515 593 40,000  Level FlightAware Transoceanic
Mon 09:15:00 PM 43.2607 -168.0831 260° West 515 593 40,000  Level FlightAware Transoceanic
Mon 09:16:00 PM 43.2361 -168.2755 260° West 515 593 40,000  Level FlightAware Transoceanic
Mon 09:17:00 PM 43.2111 -168.4678 260° West 515 593 40,000  Level FlightAware Transoceanic
Mon 09:18:00 PM 43.1880 -168.6512 260° West 520 598 40,000  Level FlightAware Transoceanic
Mon 09:19:00 PM 43.1621 -168.8444 260° West 520 598 40,000  Level FlightAware Transoceanic
Mon 09:20:00 PM 43.1359 -169.0374 259° West 520 598 40,000  Level FlightAware Transoceanic
Mon 09:21:00 PM 43.1094 -169.2303 259° West 520 598 40,000  Level FlightAware Transoceanic
Mon 09:22:00 PM 43.0825 -169.4230 259° West 520 598 40,000  Level FlightAware Transoceanic
Mon 09:23:00 PM 43.0553 -169.6155 259° West 520 598 40,000  Level FlightAware Transoceanic
Mon 09:24:00 PM 43.0278 -169.8078 259° West 520 598 40,000  Level FlightAware Transoceanic
Mon 09:24:35 PM 43.0333 -169.8000 257° West 520 598 40,000  Level Oakland Oceanic (ODAPS)
Mon 09:25:00 PM 43.0000 -170.0000 266° West 520 598 40,000  Level FlightAware Transoceanic
Mon 09:25:59 PM 42.9833 -170.2000 266° West 510 587 40,000  Level Oakland Oceanic (ODAPS)
Mon 09:26:00 PM 42.9893 -170.1913 266° West 520 598 40,000  Level FlightAware Transoceanic
Mon 09:27:00 PM 42.9782 -170.3824 265° West 520 598 40,000  Level FlightAware Transoceanic
Mon 09:28:00 PM 42.9669 -170.5735 265° West 520 598 40,000  Level FlightAware Transoceanic
Mon 09:29:00 PM 42.9552 -170.7646 265° West 520 598 40,000  Level FlightAware Transoceanic
Mon 09:30:00 PM 42.9432 -170.9556 265° West 520 598 40,000  Level FlightAware Transoceanic
Mon 09:31:00 PM 42.9308 -171.1465 265° West 520 598 40,000  Level FlightAware Transoceanic
Mon 09:32:00 PM 42.9114 -171.3673 265° West 510 587 40,000  Level FlightAware Transoceanic
Mon 09:33:00 PM 42.8982 -171.5616 265° West 510 587 40,000  Level FlightAware Transoceanic
Mon 09:34:00 PM 42.8848 -171.7558 265° West 510 587 40,000  Level FlightAware Transoceanic
Mon 09:35:00 PM 42.8710 -171.9499 264° West 510 587 40,000  Level FlightAware Transoceanic
Mon 09:36:00 PM 42.8568 -172.1439 264° West 510 587 40,000  Level FlightAware Transoceanic
Mon 09:37:00 PM 42.8424 -172.3379 264° West 510 587 40,000  Level FlightAware Transoceanic
Mon 09:37:44 PM 42.8333 -172.5000 264° West 516 594 40,000  Level Oakland Oceanic (ODAPS)
Mon 09:38:00 PM 42.8276 -172.5317 264° West 510 587 40,000  Level FlightAware Transoceanic
Mon 09:39:00 PM 42.8125 -172.7255 264° West 510 587 40,000  Level FlightAware Transoceanic
Mon 09:40:00 PM 42.7970 -172.9191 264° West 510 587 40,000  Level FlightAware Transoceanic
Mon 09:41:00 PM 42.7813 -173.1127 264° West 510 587 40,000  Level FlightAware Transoceanic
Mon 09:42:00 PM 42.7652 -173.3061 263° West 510 587 40,000  Level FlightAware Transoceanic
Mon 09:43:00 PM 42.7561 -173.4477 263° West 516 594 40,000  Level FlightAware Transoceanic
Mon 09:44:00 PM 42.7397 -173.6369 263° West 516 594 40,000  Level FlightAware Transoceanic
Mon 09:45:00 PM 42.7230 -173.8261 263° West 516 594 40,000  Level FlightAware Transoceanic
Mon 09:46:00 PM 42.7060 -174.0151 263° West 516 594 40,000  Level FlightAware Transoceanic
Mon 09:47:00 PM 42.6887 -174.2040 263° West 516 594 40,000  Level FlightAware Transoceanic
Mon 09:48:00 PM 42.6711 -174.3929 263° West 516 594 40,000  Level FlightAware Transoceanic
Mon 09:49:00 PM 42.6531 -174.5816 263° West 516 594 40,000  Level FlightAware Transoceanic
Mon 09:50:00 PM 42.6349 -174.7702 262° West 516 594 40,000  Level FlightAware Transoceanic
Mon 09:51:00 PM 42.6163 -174.9587 262° West 516 594 40,000  Level FlightAware Transoceanic
Mon 09:51:35 PM 42.6000 -175.1333 262° West 504 580 40,000  Level Oakland Oceanic (ODAPS)
Mon 09:52:00 PM 42.5975 -175.1471 262° West 516 594 40,000  Level FlightAware Transoceanic
Mon 09:53:00 PM 42.5783 -175.3354 262° West 516 594 40,000  Level FlightAware Transoceanic
Mon 09:54:00 PM 42.5588 -175.5235 262° West 516 594 40,000  Level FlightAware Transoceanic
Mon 09:55:00 PM 42.5390 -175.7116 262° West 516 594 40,000  Level FlightAware Transoceanic
Mon 09:56:00 PM 42.5189 -175.8995 262° West 516 594 40,000  Level FlightAware Transoceanic
Mon 09:57:00 PM 42.4845 -176.2226 261° West 504 580 40,000  Level FlightAware Transoceanic
Mon 09:58:00 PM 42.4643 -176.4037 261° West 504 580 40,000  Level FlightAware Transoceanic
Mon 09:59:00 PM 42.4437 -176.5848 261° West 504 580 40,000  Level FlightAware Transoceanic
Mon 10:00:00 PM 42.4229 -176.7657 261° West 504 580 40,000  Level FlightAware Transoceanic
Mon 10:01:00 PM 42.4018 -176.9465 261° West 504 580 40,000  Level FlightAware Transoceanic
Mon 10:02:00 PM 42.3804 -177.1272 261° West 504 580 40,000  Level FlightAware Transoceanic
Mon 10:03:00 PM 42.3588 -177.3077 261° West 504 580 40,000  Level FlightAware Transoceanic
Mon 10:04:00 PM 42.3368 -177.4881 261° West 504 580 40,000  Level FlightAware Transoceanic
Mon 10:05:00 PM 42.3146 -177.6684 260° West 504 580 40,000 409 Level FlightAware Transoceanic
Mon 10:05:28 PM 42.3167 -177.7000 260° West 502 578 40,600  Climbing Oakland Oceanic (ODAPS)
Mon 10:06:00 PM 42.2921 -177.8486 260° West 504 580 40,000 -391 Descending FlightAware Transoceanic
Mon 10:07:00 PM 42.2693 -178.0286 260° West 504 580 40,000  Level FlightAware Transoceanic
Mon 10:08:00 PM 42.2462 -178.2085 260° West 504 580 40,000  Level FlightAware Transoceanic
Mon 10:09:00 PM 42.2228 -178.3883 260° West 504 580 40,000  Level FlightAware Transoceanic
Mon 10:10:00 PM 42.1992 -178.5679 260° West 504 580 40,000 300 Level FlightAware Transoceanic
Mon 10:11:00 PM 42.1762 -178.7644 260° West 502 578 40,600 300 Climbing FlightAware Transoceanic
Mon 10:12:00 PM 42.1519 -178.9413 259° West 502 578 40,600  Level FlightAware Transoceanic
Mon 10:13:00 PM 42.1272 -179.1181 259° West 502 578 40,600  Level FlightAware Transoceanic
Mon 10:14:00 PM 42.1023 -179.2948 259° West 502 578 40,600  Level FlightAware Transoceanic
Mon 10:15:00 PM 42.0771 -179.4713 259° West 502 578 40,600  Level FlightAware Transoceanic
Mon 10:16:00 PM 42.0517 -179.6477 259° West 502 578 40,600  Level FlightAware Transoceanic
Mon 10:17:00 PM 42.0260 -179.8239 259° West 502 578 40,600  Level FlightAware Transoceanic
Mon 10:18:00 PM 42.0000 -180.0000 258° West 502 578 40,600 400 Level FlightAware Transoceanic
Mon 10:18:00 PM 42.0000 180.0000 258° West 506 582 41,000  Climbing Oakland Oceanic (ODAPS)
Mon 10:19:00 PM 41.9730 179.8227 258° West 502 578 40,600  Descending FlightAware Transoceanic
Mon 10:19:21 PM 41.9667 179.7500 258° West 503 579 41,000  Climbing Oakland Oceanic (ODAPS)
Mon 10:20:00 PM 41.9457 179.6456 258° West 502 578 40,600 -242 Descending FlightAware Transoceanic
Mon 10:21:00 PM 41.9182 179.4686 258° West 502 578 40,600  Level FlightAware Transoceanic
Mon 10:22:00 PM 41.8904 179.2917 258° West 502 578 40,600  Level FlightAware Transoceanic
Mon 10:23:00 PM 41.8623 179.1150 258° West 502 578 40,600 200 Level FlightAware Transoceanic
Mon 10:24:00 PM 41.8246 178.8808 258° West 506 582 41,000 200 Climbing FlightAware Transoceanic
Mon 10:25:00 PM 41.7927 178.6592 258° West 503 579 41,000  Level FlightAware Transoceanic
Mon 10:26:00 PM 41.7627 178.4780 257° West 503 579 41,000  Level FlightAware Transoceanic
Mon 10:27:00 PM 41.7325 178.2969 257° West 503 579 41,000  Level FlightAware Transoceanic
Mon 10:28:00 PM 41.7019 178.1160 257° West 503 579 41,000  Level FlightAware Transoceanic
Mon 10:29:00 PM 41.6711 177.9353 257° West 503 579 41,000  Level FlightAware Transoceanic
Mon 10:30:00 PM 41.6400 177.7548 257° West 503 579 41,000  Level FlightAware Transoceanic
Mon 10:31:00 PM 41.6086 177.5744 257° West 503 579 41,000  Level FlightAware Transoceanic
Mon 10:31:47 PM 41.5833 177.4667 257° West 503 579 41,000  Level Oakland Oceanic (ODAPS)
Mon 10:32:00 PM 41.5769 177.3942 257° West 503 579 41,000  Level FlightAware Transoceanic
Mon 10:33:00 PM 41.5449 177.2142 257° West 503 579 41,000  Level FlightAware Transoceanic
Mon 10:33:13 PM 41.5333 177.2000 257° West 507 583 41,000  Level Oakland Oceanic (ODAPS)
Mon 10:34:00 PM 41.5126 177.0344 256° West 503 579 41,000  Level FlightAware Transoceanic
Mon 10:35:00 PM 41.4801 176.8548 256° West 503 579 41,000  Level FlightAware Transoceanic
Mon 10:36:00 PM 41.4473 176.6753 256° West 503 579 41,000  Level FlightAware Transoceanic
Mon 10:37:00 PM 41.4142 176.4960 256° West 503 579 41,000  Level FlightAware Transoceanic
Mon 10:38:00 PM 41.3821 176.3523 256° West 503 579 41,000  Level FlightAware Transoceanic
Mon 10:39:00 PM 41.3322 176.0993 256° West 507 583 41,000  Level FlightAware Transoceanic
Mon 10:40:00 PM 41.2977 175.9165 256° West 507 583 41,000  Level FlightAware Transoceanic
Mon 10:41:00 PM 41.2628 175.7339 256° West 507 583 41,000  Level FlightAware Transoceanic
Mon 10:42:00 PM 41.2277 175.5515 256° West 507 583 41,000  Level FlightAware Transoceanic
Mon 10:43:00 PM 41.1923 175.3693 255° West 507 583 41,000  Level FlightAware Transoceanic
Mon 10:44:00 PM 41.1566 175.1873 255° West 507 583 41,000  Level FlightAware Transoceanic
Mon 10:45:00 PM 41.1207 175.0055 255° West 507 583 41,000  Level FlightAware Transoceanic
Mon 10:46:00 PM 41.0844 174.8239 255° West 507 583 41,000  Level FlightAware Transoceanic
Mon 10:47:00 PM 41.0479 174.6425 255° West 507 583 41,000  Level FlightAware Transoceanic
Mon 10:47:05 PM 41.0667 174.7167 255° West 497 572 41,000  Level Oakland Oceanic (ODAPS)
Mon 10:48:00 PM 41.0110 174.4613 255° West 507 583 41,000  Level FlightAware Transoceanic
Mon 10:49:00 PM 40.9739 174.2803 255° West 507 583 41,000  Level FlightAware Transoceanic
Mon 10:50:00 PM 40.9365 174.0995 255° West 507 583 41,000  Level FlightAware Transoceanic
Mon 10:51:00 PM 40.8988 173.9190 255° West 507 583 41,000  Level FlightAware Transoceanic
Mon 10:52:00 PM 40.8609 173.7386 254° West 507 583 41,000  Level FlightAware Transoceanic
Mon 10:53:00 PM 40.8463 173.6557 254° West 497 572 41,000  Level FlightAware Transoceanic
Mon 10:54:00 PM 40.8087 173.4795 254° West 497 572 41,000  Level FlightAware Transoceanic
Mon 10:55:00 PM 40.7707 173.3036 254° West 497 572 41,000  Level FlightAware Transoceanic
Mon 10:56:00 PM 40.7325 173.1279 254° West 497 572 41,000  Level FlightAware Transoceanic
Mon 10:57:00 PM 40.6940 172.9523 254° West 497 572 41,000  Level FlightAware Transoceanic
Mon 10:58:00 PM 40.6553 172.7770 254° West 497 572 41,000  Level FlightAware Transoceanic
Mon 10:59:00 PM 40.6163 172.6019 254° West 497 572 41,000  Level FlightAware Transoceanic
Mon 11:00:00 PM 40.5770 172.4269 253° West 497 572 41,000  Level FlightAware Transoceanic
Mon 11:00:55 PM 40.5500 172.3167 253° West 490 564 41,000  Level Oakland Oceanic (ODAPS)
Mon 11:01:00 PM 40.5375 172.2522 253° West 497 572 41,000  Level FlightAware Transoceanic
Mon 11:02:00 PM 40.4977 172.0777 253° West 497 572 41,000  Level FlightAware Transoceanic
Mon 11:03:00 PM 40.4577 171.9034 253° West 497 572 41,000  Level FlightAware Transoceanic
Mon 11:04:00 PM 40.4174 171.7293 253° West 497 572 41,000  Level FlightAware Transoceanic
Mon 11:05:00 PM 40.3768 171.5554 253° West 497 572 41,000  Level FlightAware Transoceanic
Mon 11:06:00 PM 40.3359 171.3817 253° West 497 572 41,000  Level FlightAware Transoceanic
Mon 11:07:00 PM 40.3019 171.2428 253° West 490 564 41,000  Level FlightAware Transoceanic
Mon 11:08:00 PM 40.2596 171.0645 253° West 490 564 41,000  Level FlightAware Transoceanic
Mon 11:09:00 PM 40.2170 170.8866 253° West 490 564 41,000  Level FlightAware Transoceanic
Mon 11:10:00 PM 40.1741 170.7088 252° West 490 564 41,000  Level FlightAware Transoceanic
Mon 11:11:00 PM 40.1310 170.5313 252° West 490 564 41,000  Level FlightAware Transoceanic
Mon 11:12:00 PM 40.0876 170.3539 252° West 490 564 41,000  Level FlightAware Transoceanic
Mon 11:13:00 PM 40.0439 170.1769 252° West 490 564 41,000  Level FlightAware Transoceanic
Mon 11:14:00 PM 40.0000 170.0000 259° West 490 564 41,000  Level FlightAware Transoceanic
Mon 11:14:58 PM 40.0000 170.0000 259° West 480 552 41,000  Level Oakland Oceanic (ODAPS)
Mon 11:15:00 PM 39.9751 169.8371 259° West 490 564 41,000  Level FlightAware Transoceanic
Mon 11:15:24 PM 39.9833 169.9333 259° West 473 544 41,000  Level Oakland Oceanic (ODAPS)
Mon 11:16:00 PM 39.9499 169.6743 259° West 490 564 41,000  Level FlightAware Transoceanic
Mon 11:17:00 PM 39.9245 169.5116 258° West 490 564 41,000  Level FlightAware Transoceanic
Mon 11:18:00 PM 39.8989 169.3490 258° West 490 564 41,000  Level FlightAware Transoceanic
Mon 11:19:00 PM 39.8730 169.1866 258° West 490 564 41,000  Level FlightAware Transoceanic
Mon 11:20:00 PM 39.8470 169.0242 258° West 490 564 41,000  Level FlightAware Transoceanic
Mon 11:21:00 PM 39.8263 168.9326 258° West 473 544 41,000  Level FlightAware Transoceanic
Mon 11:22:00 PM 39.7993 168.7663 258° West 473 544 41,000  Level FlightAware Transoceanic
Mon 11:23:00 PM 39.7720 168.6000 258° West 473 544 41,000  Level FlightAware Transoceanic
Mon 11:24:00 PM 39.7445 168.4340 258° West 473 544 41,000  Level FlightAware Transoceanic
Mon 11:25:00 PM 39.7168 168.2680 258° West 473 544 41,000  Level FlightAware Transoceanic
Mon 11:26:00 PM 39.6888 168.1022 258° West 473 544 41,000  Level FlightAware Transoceanic
Mon 11:27:00 PM 39.6606 167.9365 257° West 473 544 41,000  Level FlightAware Transoceanic
Mon 11:28:00 PM 39.6322 167.7710 257° West 473 544 41,000  Level FlightAware Transoceanic
Mon 11:28:40 PM 39.6333 167.7333 257° West 466 536 41,000  Level Oakland Oceanic (ODAPS)
Mon 11:29:00 PM 39.6035 167.6056 257° West 473 544 41,000  Level FlightAware Transoceanic
Mon 11:30:00 PM 39.5746 167.4403 257° West 473 544 41,000  Level FlightAware Transoceanic
Mon 11:31:00 PM 39.5455 167.2752 257° West 473 544 41,000  Level FlightAware Transoceanic
Mon 11:32:00 PM 39.5162 167.1102 257° West 473 544 41,000  Level FlightAware Transoceanic
Mon 11:32:46 PM 39.5167 167.0667 257° West 467 537 41,000  Level Oakland Oceanic (ODAPS)
Mon 11:33:00 PM 39.4866 166.9454 257° West 473 544 41,000  Level FlightAware Transoceanic
Mon 11:34:00 PM 39.4567 166.7807 257° West 473 544 41,000  Level FlightAware Transoceanic
Mon 11:35:00 PM 39.4316 166.6074 257° West 466 536 41,000  Level FlightAware Transoceanic
Mon 11:36:00 PM 39.4019 166.4471 256° West 466 536 41,000  Level FlightAware Transoceanic
Mon 11:37:00 PM 39.3720 166.2869 256° West 466 536 41,000  Level FlightAware Transoceanic
Mon 11:38:00 PM 39.3660 166.2489 256° West 467 537 41,000  Level FlightAware Transoceanic
Mon 11:39:00 PM 39.3352 166.0857 256° West 467 537 41,000  Level FlightAware Transoceanic
Mon 11:40:00 PM 39.3042 165.9227 256° West 467 537 41,000  Level FlightAware Transoceanic
Mon 11:41:00 PM 39.2729 165.7599 256° West 467 537 41,000  Level FlightAware Transoceanic
Mon 11:42:00 PM 39.2414 165.5972 256° West 467 537 41,000  Level FlightAware Transoceanic
Mon 11:42:31 PM 39.2167 165.5000 256° West 461 531 41,000  Level Oakland Oceanic (ODAPS)
Mon 11:43:00 PM 39.2097 165.4346 256° West 467 537 41,000  Level FlightAware Transoceanic
Mon 11:44:00 PM 39.1777 165.2722 256° West 467 537 41,000  Level FlightAware Transoceanic
Mon 11:45:00 PM 39.1456 165.1100 256° West 467 537 41,000  Level FlightAware Transoceanic
Mon 11:46:00 PM 39.1132 164.9479 256° West 467 537 41,000  Level FlightAware Transoceanic
Mon 11:47:00 PM 39.0806 164.7859 255° West 467 537 41,000  Level FlightAware Transoceanic
Mon 11:48:00 PM 39.0265 164.5441 255° West 461 531 41,000  Level FlightAware Transoceanic
Mon 11:49:00 PM 38.9941 164.3853 255° West 461 531 41,000  Level FlightAware Transoceanic
Mon 11:50:00 PM 38.9614 164.2266 255° West 461 531 41,000  Level FlightAware Transoceanic
Mon 11:51:00 PM 38.9286 164.0681 255° West 461 531 41,000  Level FlightAware Transoceanic
Mon 11:52:00 PM 38.8955 163.9097 255° West 461 531 41,000  Level FlightAware Transoceanic
Mon 11:53:00 PM 38.8622 163.7515 255° West 461 531 41,000  Level FlightAware Transoceanic
Mon 11:54:00 PM 38.8287 163.5934 255° West 461 531 41,000  Level FlightAware Transoceanic
Mon 11:55:00 PM 38.7949 163.4355 255° West 461 531 41,000  Level FlightAware Transoceanic
Mon 11:56:00 PM 38.7610 163.2777 255° West 461 531 41,000  Level FlightAware Transoceanic
Mon 11:57:00 PM 38.7268 163.1201 254° West 461 531 41,000  Level FlightAware Transoceanic
Mon 11:58:00 PM 38.6925 162.9626 254° West 461 531 41,000  Level FlightAware Transoceanic
Mon 11:59:00 PM 38.6579 162.8053 254° West 461 531 41,000  Level FlightAware Transoceanic
Tue 12:00:00 AM 38.6231 162.6481 254° West 461 531 41,000  Level FlightAware Transoceanic
Tue 12:01:00 AM 38.5881 162.4911 254° West 461 531 41,000  Level FlightAware Transoceanic
Tue 12:02:00 AM 38.5529 162.3342 254° West 461 531 41,000  Level FlightAware Transoceanic
Tue 12:03:00 AM 38.5175 162.1775 254° West 461 531 41,000  Level FlightAware Transoceanic
Tue 12:04:00 AM 38.4819 162.0209 254° West 461 531 41,000  Level FlightAware Transoceanic
Tue 12:05:00 AM 38.4460 161.8645 254° West 461 531 41,000  Level FlightAware Transoceanic
Tue 12:06:00 AM 38.4100 161.7083 254° West 461 531 41,000  Level FlightAware Transoceanic
Tue 12:07:00 AM 38.3737 161.5522 253° West 461 531 41,000  Level FlightAware Transoceanic
Tue 12:08:00 AM 38.3373 161.3963 253° West 461 531 41,000  Level FlightAware Transoceanic
Tue 12:09:00 AM 38.3006 161.2405 253° West 461 531 41,000  Level FlightAware Transoceanic
Tue 12:10:00 AM 38.2638 161.0849 253° West 461 531 41,000  Level FlightAware Transoceanic
Tue 12:11:00 AM 38.2267 160.9294 253° West 461 531 41,000  Level FlightAware Transoceanic
Tue 12:12:00 AM 38.1894 160.7741 253° West 461 531 41,000  Level FlightAware Transoceanic
Tue 12:13:00 AM 38.1520 160.6190 253° West 461 531 41,000  Level FlightAware Transoceanic
Tue 12:14:00 AM 38.1143 160.4640 253° West 461 531 41,000  Level FlightAware Transoceanic
Tue 12:15:00 AM 38.0764 160.3092 253° West 461 531 41,000  Level FlightAware Transoceanic
Tue 12:16:00 AM 38.0383 160.1545 253° West 461 531 41,000  Level FlightAware Transoceanic
Tue 12:17:00 AM 38.0000 160.0000 266° West 461 531 41,000  Level FlightAware Transoceanic
Tue 12:18:00 AM 37.9913 159.8490 266° West 461 531 41,000  Level FlightAware Transoceanic
Tue 12:19:00 AM 37.9825 159.6981 266° West 461 531 41,000  Level FlightAware Transoceanic
Tue 12:20:00 AM 37.9734 159.5472 266° West 461 531 41,000  Level FlightAware Transoceanic
Tue 12:21:00 AM 37.9642 159.3963 266° West 461 531 41,000  Level FlightAware Transoceanic
Tue 12:22:00 AM 37.9548 159.2455 265° West 461 531 41,000  Level FlightAware Transoceanic
Tue 12:23:00 AM 37.9451 159.0947 265° West 461 531 41,000  Level FlightAware Transoceanic
Tue 12:24:00 AM 37.9353 158.9440 265° West 461 531 41,000  Level FlightAware Transoceanic
Tue 12:25:00 AM 37.9253 158.7933 265° West 461 531 41,000  Level FlightAware Transoceanic
Tue 12:26:00 AM 37.9151 158.6426 265° West 461 531 41,000  Level FlightAware Transoceanic
Tue 12:27:00 AM 37.9047 158.4920 265° West 461 531 41,000  Level FlightAware Transoceanic
Tue 12:28:00 AM 37.8941 158.3414 265° West 461 531 41,000  Level FlightAware Transoceanic
Tue 12:29:00 AM 37.8834 158.1909 265° West 461 531 41,000  Level FlightAware Transoceanic
Tue 12:30:00 AM 37.8724 158.0404 265° West 461 531 41,000  Level FlightAware Transoceanic
Tue 12:31:00 AM 37.8612 157.8900 265° West 461 531 41,000  Level FlightAware Transoceanic
Tue 12:32:00 AM 37.8499 157.7396 264° West 461 531 41,000  Level FlightAware Transoceanic
Tue 12:33:00 AM 37.8383 157.5892 264° West 461 531 41,000  Level FlightAware Transoceanic
Tue 12:34:00 AM 37.8266 157.4389 264° West 461 531 41,000  Level FlightAware Transoceanic
Tue 12:35:00 AM 37.8147 157.2887 264° West 461 531 41,000  Level FlightAware Transoceanic
Tue 12:36:00 AM 37.8026 157.1385 264° West 461 531 41,000  Level FlightAware Transoceanic
Tue 12:37:00 AM 37.7903 156.9883 264° West 461 531 41,000  Level FlightAware Transoceanic
Tue 12:38:00 AM 37.7778 156.8382 264° West 461 531 41,000  Level FlightAware Transoceanic
Tue 12:39:00 AM 37.7651 156.6882 264° West 461 531 41,000  Level FlightAware Transoceanic
Tue 12:40:00 AM 37.7522 156.5381 264° West 461 531 41,000  Level FlightAware Transoceanic
Tue 12:41:00 AM 37.7391 156.3882 264° West 461 531 41,000  Level FlightAware Transoceanic
Tue 12:42:00 AM 37.7259 156.2383 264° West 461 531 41,000  Level FlightAware Transoceanic
Tue 12:43:00 AM 37.7124 156.0885 263° West 461 531 41,000  Level FlightAware Transoceanic
Tue 12:44:00 AM 37.6988 155.9387 263° West 461 531 41,000  Level FlightAware Transoceanic
Tue 12:45:00 AM 37.6850 155.7889 263° West 461 531 41,000  Level FlightAware Transoceanic
Tue 12:46:00 AM 37.6710 155.6393 263° West 461 531 41,000  Level FlightAware Transoceanic
Tue 12:47:00 AM 37.6567 155.4896 263° West 461 531 41,000  Level FlightAware Transoceanic
Tue 12:48:00 AM 37.6423 155.3401 263° West 461 531 41,000  Level FlightAware Transoceanic
Tue 12:49:00 AM 37.6278 155.1906 263° West 461 531 41,000  Level FlightAware Transoceanic
Tue 12:50:00 AM 37.6130 155.0411 263° West 461 531 41,000  Level FlightAware Transoceanic
Tue 12:51:00 AM 37.5980 154.8918 263° West 461 531 41,000  Level FlightAware Transoceanic
Tue 12:52:00 AM 37.5829 154.7424 263° West 461 531 41,000  Level FlightAware Transoceanic
Tue 12:53:00 AM 37.5676 154.5932 263° West 461 531 41,000  Level FlightAware Transoceanic
Tue 12:54:00 AM 37.5520 154.4440 262° West 461 531 41,000  Level FlightAware Transoceanic
Tue 12:55:00 AM 37.5363 154.2948 262° West 461 531 41,000  Level FlightAware Transoceanic
Tue 12:56:00 AM 37.5204 154.1458 262° West 461 531 41,000  Level FlightAware Transoceanic
Tue 12:57:00 AM 37.5043 153.9967 262° West 461 531 41,000  Level FlightAware Transoceanic
Tue 12:58:00 AM 37.4881 153.8478 262° West 461 531 41,000  Level FlightAware Transoceanic
Tue 12:59:00 AM 37.4716 153.6989 262° West 461 531 41,000  Level FlightAware Transoceanic
Tue 01:00:00 AM 37.4550 153.5501 262° West 461 531 41,000  Level FlightAware Transoceanic
Tue 01:01:00 AM 37.4381 153.4013 262° West 461 531 41,000  Level FlightAware Transoceanic
Tue 01:02:00 AM 37.4211 153.2527 262° West 461 531 41,000  Level FlightAware Transoceanic
Tue 01:03:00 AM 37.4039 153.1040 262° West 461 531 41,000  Level FlightAware Transoceanic
Tue 01:04:00 AM 37.3865 152.9555 262° West 461 531 41,000  Level FlightAware Transoceanic
Tue 01:05:00 AM 37.3689 152.8070 261° West 461 531 41,000  Level FlightAware Transoceanic
Tue 01:06:00 AM 37.3512 152.6586 261° West 461 531 41,000  Level FlightAware Transoceanic
Tue 01:07:00 AM 37.3332 152.5103 261° West 461 531 41,000  Level FlightAware Transoceanic
Tue 01:08:00 AM 37.3151 152.3620 261° West 461 531 41,000  Level FlightAware Transoceanic
Tue 01:09:00 AM 37.2968 152.2138 261° West 461 531 41,000  Level FlightAware Transoceanic
Tue 01:10:00 AM 37.2783 152.0657 261° West 461 531 41,000  Level FlightAware Transoceanic
Tue 01:11:00 AM 37.2596 151.9177 261° West 461 531 41,000  Level FlightAware Transoceanic
Tue 01:12:00 AM 37.2407 151.7697 261° West 461 531 41,000  Level FlightAware Transoceanic
Tue 01:13:00 AM 37.2217 151.6218 261° West 461 531 41,000  Level FlightAware Transoceanic
Tue 01:14:00 AM 37.2024 151.4740 261° West 461 531 41,000  Level FlightAware Transoceanic
Tue 01:15:00 AM 37.1830 151.3262 261° West 461 531 41,000  Level FlightAware Transoceanic
Tue 01:16:00 AM 37.1634 151.1785 260° West 461 531 41,000  Level FlightAware Transoceanic
Tue 01:17:00 AM 37.1436 151.0309 260° West 461 531 41,000  Level FlightAware Transoceanic
Tue 01:18:00 AM 37.1236 150.8834 260° West 461 531 41,000  Level FlightAware Transoceanic
Tue 01:19:00 AM 37.1035 150.7360 260° West 461 531 41,000  Level FlightAware Transoceanic
Tue 01:20:00 AM 37.0832 150.5886 260° West 461 531 41,000  Level FlightAware Transoceanic
Tue 01:21:00 AM 37.0626 150.4414 260° West 461 531 41,000  Level FlightAware Transoceanic
Tue 01:22:00 AM 37.0420 150.2942 260° West 461 531 41,000  Level FlightAware Transoceanic
Tue 01:23:00 AM 37.0211 150.1470 260° West 461 531 41,000  Level FlightAware Transoceanic
Tue 01:24:00 AM 36.9985 149.9897 260° West  Level FlightAware Approximate
Tue 01:25:00 AM 36.9985 149.9791 265° West  Level FlightAware Approximate
Tue 01:26:00 AM 36.9873 149.8199 265° West  Level FlightAware Approximate
Tue 01:27:00 AM 36.9759 149.6607 265° West  Level FlightAware Approximate
Tue 01:28:00 AM 36.9643 149.5016 265° West  Level FlightAware Approximate
Tue 01:29:00 AM 36.9524 149.3425 265° West  Level FlightAware Approximate
Tue 01:30:00 AM 36.9404 149.1834 265° West  Level FlightAware Approximate
Tue 01:31:00 AM 36.9281 149.0245 265° West  Level FlightAware Approximate
Tue 01:32:00 AM 36.9156 148.8655 264° West  Level FlightAware Approximate
Tue 01:33:00 AM 36.9029 148.7066 264° West  Level FlightAware Approximate
Tue 01:34:00 AM 36.8900 148.5478 264° West  Level FlightAware Approximate
Tue 01:35:00 AM 36.8674 148.3912 255° West  Level FlightAware Approximate
Tue 01:36:00 AM 36.8346 148.2370 255° West  Level FlightAware Approximate
Tue 01:37:00 AM 36.8017 148.0829 255° West  Level FlightAware Approximate
Tue 01:38:00 AM 36.7686 147.9290 255° West  Level FlightAware Approximate
Tue 01:39:00 AM 36.7352 147.7752 255° West  Level FlightAware Approximate
Tue 01:40:00 AM 36.7017 147.6215 255° West  Level FlightAware Approximate
Tue 01:41:00 AM 36.6679 147.4680 255° West  Level FlightAware Approximate
Tue 01:42:00 AM 36.6340 147.3146 255° West  Level FlightAware Approximate
Tue 01:43:00 AM 36.5999 147.1613 255° West  Level FlightAware Approximate
Tue 01:44:00 AM 36.5656 147.0081 254° West  Level FlightAware Approximate
Tue 01:45:00 AM 36.5310 146.8551 254° West  Level FlightAware Approximate
Tue 01:46:00 AM 36.4963 146.7023 254° West  Level FlightAware Approximate
Tue 01:47:00 AM 36.4614 146.5496 254° West  Level FlightAware Approximate
Tue 01:48:00 AM 36.4263 146.3970 254° West  Level FlightAware Approximate
Tue 01:49:00 AM 36.3880 146.2458 248° West  Level FlightAware Approximate
Tue 01:50:00 AM 36.3405 146.0986 248° West  Level FlightAware Approximate
Tue 01:51:00 AM 36.2929 145.9516 248° West  Level FlightAware Approximate
Tue 01:52:00 AM 36.2452 145.8047 248° West  Level FlightAware Approximate
Tue 01:52:09 AM 36.2900 146.1820 248° West 414 476 41,000  Level FlightAware ADS-B
Tue 01:52:44 AM 36.2750 146.1080 256° West 412 474 41,000  Level FlightAware ADS-B
Tue 01:53:31 AM 36.2560 146.0100 257° West 412 474 41,000  Level FlightAware ADS-B
Tue 01:54:07 AM 36.2410 145.9400 255° West 412 474 41,000  Level FlightAware ADS-B
Tue 01:54:43 AM 36.2270 145.8700 256° West 412 474 41,000  Level FlightAware ADS-B
Tue 01:55:14 AM 36.2050 145.7650 255° West 411 473 41,000  Level FlightAware ADS-B
Tue 01:55:51 AM 36.1900 145.6930 256° West 411 473 41,000  Level FlightAware ADS-B
Tue 01:56:28 AM 36.1760 145.6210 256° West 411 473 41,000  Level FlightAware ADS-B
Tue 01:57:04 AM 36.1620 145.5510 256° West 411 473 41,000  Level FlightAware ADS-B
Tue 01:57:40 AM 36.1480 145.4810 256° West 411 473 41,000  Level FlightAware ADS-B
Tue 01:58:14 AM 36.1340 145.4150 255° West 411 473 41,000  Level FlightAware ADS-B
Tue 01:58:50 AM 36.1200 145.3450 256° West 411 473 41,000  Level FlightAware ADS-B
Tue 01:59:26 AM 36.1060 145.2750 256° West 411 473 41,000  Level FlightAware ADS-B
Tue 02:00:03 AM 36.0920 145.2040 256° West 411 473 41,000  Level FlightAware ADS-B
Tue 02:00:39 AM 36.0780 145.1340 256° West 411 473 41,000  Level FlightAware ADS-B
Tue 02:01:16 AM 36.0630 145.0620 256° West 411 473 41,000  Level FlightAware ADS-B
Tue 02:01:50 AM 36.0500 144.9960 256° West 411 473 41,000  Level FlightAware ADS-B
Tue 02:02:24 AM 36.0360 144.9300 255° West 411 473 41,000  Level FlightAware ADS-B
Tue 02:03:07 AM 36.0180 144.6550 265° West 419 482 41,000  Level FlightAware ADS-B
Tue 02:03:42 AM 36.0060 144.5730 260° West 417 480 41,000  Level FlightAware ADS-B
Tue 02:04:22 AM 35.9910 144.4800 259° West 415 478 41,000  Level FlightAware ADS-B
Tue 02:05:17 AM 35.9730 144.3640 259° West 415 478 41,000  Level FlightAware ADS-B
Tue 02:05:53 AM 35.9620 144.2930 259° West 415 478 41,000  Level FlightAware ADS-B
Tue 02:06:29 AM 35.9500 144.2210 258° West 415 478 41,000  Level FlightAware ADS-B
Tue 02:07:02 AM 35.9330 144.1160 259° West 420 483 41,000  Level FlightAware ADS-B
Tue 02:07:41 AM 35.9200 144.0390 258° West 420 483 41,000  Level FlightAware ADS-B
Tue 02:08:12 AM 35.9060 143.9480 259° West 417 480 41,000  Level FlightAware ADS-B
Tue 02:08:47 AM 35.8920 143.8620 259° West 417 480 41,000  Level FlightAware ADS-B
Tue 02:09:22 AM 35.8760 143.7810 256° West 416 479 41,000  Level FlightAware ADS-B
Tue 02:10:15 AM 35.8530 143.6740 255° West 413 475 41,000  Level FlightAware ADS-B
Tue 02:10:47 AM 35.8360 143.5870 256° West 413 475 41,000 -609 Level FlightAware ADS-B
Tue 02:11:24 AM 35.8230 143.5190 257° West 411 473 40,300 -568 Descending FlightAware ADS-B
Tue 02:12:01 AM 35.8090 143.4470 257° West 411 473 40,300 -1,660 Level FlightAware ADS-B
Tue 02:12:58 AM 35.7780 143.3040 255° West 416 479 37,700 -3,495 Descending FlightAware ADS-B
Tue 02:13:32 AM 35.7600 143.2100 257° West 423 487 35,000 -2,667 Descending FlightAware ADS-B
Tue 02:14:10 AM 35.7440 143.1330 256° West 425 489 34,500 -405 Descending FlightAware ADS-B
Tue 02:14:46 AM 35.7300 143.0610 257° West 425 489 34,500  Level FlightAware ADS-B
Tue 02:15:22 AM 35.7150 142.9900 255° West 425 489 34,500  Level FlightAware ADS-B
Tue 02:15:58 AM 35.7010 142.9180 257° West 425 489 34,500 -5,760 Level FlightAware ADS-B
Tue 02:16:37 AM 35.6690 142.7660 256° West 408 470 27,300 -6,553 Descending FlightAware ADS-B
Tue 02:17:14 AM 35.6530 142.6910 255° West 406 467 26,200 -1,976 Descending FlightAware ADS-B
Tue 02:18:02 AM 35.6290 142.5760 256° West 356 410 24,500 -1,955 Descending FlightAware ADS-B
Tue 02:18:43 AM 35.6190 142.4900 262° West 385 443 23,300 -1,725 Descending FlightAware ADS-B
Tue 02:19:22 AM 35.6160 142.4070 267° West 381 438 22,200 -1,800 Descending FlightAware ADS-B
Tue 02:19:53 AM 35.6120 142.3370 266° West 376 433 21,200 -1,615 Descending FlightAware ADS-B
Tue 02:20:40 AM 35.6080 142.2500 267° West 374 430 20,100 -1,556 Descending FlightAware ADS-B
Tue 02:21:14 AM 35.6050 142.1810 267° West 371 427 19,100 -845 Descending FlightAware ADS-B
Tue 02:21:51 AM 35.6010 142.1150 266° West 371 427 19,100 -1,227 Level FlightAware ADS-B
Tue 02:21:58 AM 35.6150 142.0790 296° West 360 414 18,200 -2,053 Descending FlightAware ADS-B
Tue 02:22:29 AM 35.6250 142.0260 283° West 362 417 17,800 -578 Descending FlightAware ADS-B
Tue 02:23:21 AM 35.6440 141.9270 283° West 357 411 17,400 -907 Descending FlightAware ADS-B
Tue 02:23:55 AM 35.6590 141.8550 284° West 351 404 16,500 -923 Descending FlightAware ADS-B
Tue 02:24:39 AM 35.6730 141.7780 283° West 347 399 16,200 -944 Descending FlightAware ADS-B
Tue 02:25:24 AM 35.6930 141.6830 285° West 349 402 15,100 -1,139 Descending FlightAware ADS-B
Tue 02:25:58 AM 35.7050 141.6180 283° West 351 404 14,700 -889 Descending FlightAware ADS-B
Tue 02:26:45 AM 35.7240 141.5190 283° West 350 403 13,900 -837 Descending FlightAware ADS-B
Tue 02:27:24 AM 35.7370 141.4520 283° West 350 403 13,500 -575 Descending FlightAware ADS-B
Tue 02:27:58 AM 35.7500 141.3850 283° West 345 397 13,200 -767 Descending FlightAware ADS-B
Tue 02:28:50 AM 35.7700 141.2830 284° West 311 358 12,400 -857 Descending FlightAware ADS-B
Tue 02:29:29 AM 35.7810 141.2240 283° West 295 339 11,900 -805 Descending FlightAware ADS-B
Tue 02:30:12 AM 35.7950 141.1510 283° West 275 316 11,300 -692 Descending FlightAware ADS-B
Tue 02:30:47 AM 35.8050 141.0990 283° West 269 310 11,000 -610 Descending FlightAware ADS-B
Tue 02:31:11 AM 35.8110 141.0610 281° West 270 311 10,700 -545 Descending FlightAware ADS-B
Tue 02:31:31 AM 35.8070 141.0380 258° West 275 316 10,600 -686 Descending FlightAware ADS-B
Tue 02:31:46 AM 35.7940 141.0160 234° Southwest 281 323 10,300 -1,650 Descending FlightAware ADS-B
Tue 02:32:11 AM 35.7680 140.9860 223° Southwest 288 331 9,500 -1,636 Descending FlightAware ADS-B
Tue 02:32:30 AM 35.7490 140.9650 222° Southwest 290 334 9,100 -1,125 Descending FlightAware ADS-B
Tue 02:32:43 AM 35.7390 140.9540 222° Southwest 290 334 8,900 -1,200 Descending FlightAware ADS-B
Tue 02:33:05 AM 35.7140 140.9270 221° Southwest 297 342 8,400 -1,385 Descending FlightAware ADS-B
Tue 02:33:22 AM 35.6990 140.9090 224° Southwest 292 336 8,000 -1,459 Descending FlightAware ADS-B
Tue 02:33:42 AM 35.6770 140.8850 222° Southwest 285 328 7,500 -1,091 Descending FlightAware ADS-B
Tue 02:33:55 AM 35.6710 140.8780 223° Southwest 285 328 7,400 -1,200 Descending FlightAware ADS-B
Tue 02:34:17 AM 35.6450 140.8490 222° Southwest 285 328 6,800 -1,565 Descending FlightAware ADS-B
Tue 02:34:41 AM 35.6190 140.8190 223° Southwest 287 330 6,200 -1,364 Descending FlightAware ADS-B
Tue 02:35:01 AM 35.5980 140.7950 223° Southwest 286 329 5,800 -1,200 Descending FlightAware ADS-B
Tue 02:35:21 AM 35.5810 140.7760 222° Southwest 290 334 5,400 -1,125 Descending FlightAware ADS-B
Tue 02:35:33 AM 35.5680 140.7620 221° Southwest 289 333 5,200 -1,059 Descending FlightAware ADS-B
Tue 02:35:55 AM 35.5440 140.7370 220° Southwest 281 323 4,800 -1,050 Descending FlightAware ADS-B
Tue 02:36:13 AM 35.5260 140.7250 208° Southwest 280 322 4,500 -968 Descending FlightAware ADS-B
Tue 02:36:26 AM 35.5100 140.7180 200° South 288 331 4,300 -632 Descending FlightAware ADS-B
Tue 02:36:32 AM 35.5020 140.7130 207° Southwest 286 329 4,300  Level FlightAware ADS-B
Tue 02:36:45 AM 35.4870 140.7000 215° Southwest 270 311 4,300  Level FlightAware ADS-B
Tue 02:36:58 AM 35.4760 140.6850 228° Southwest 264 304 4,300  Level FlightAware ADS-B
Tue 02:37:05 AM 35.4710 140.6760 236° Southwest 257 296 4,300  Level FlightAware ADS-B
Tue 02:37:15 AM 35.4680 140.6640 253° West 242 278 4,300  Level FlightAware ADS-B
Tue 02:37:27 AM 35.4660 140.6480 261° West 228 262 4,300  Level FlightAware ADS-B
Tue 02:37:47 AM 35.4700 140.6270 283° West 220 253 4,300  Level FlightAware ADS-B
Tue 02:38:06 AM 35.4810 140.6030 299° West 218 251 4,300  Level FlightAware ADS-B
Tue 02:38:26 AM 35.4890 140.5850 299° West 219 252 4,300  Level FlightAware ADS-B
Tue 02:38:38 AM 35.4990 140.5690 308° West 216 249 4,300  Level FlightAware ADS-B
Tue 02:38:44 AM 35.5030 140.5640 315° West 214 246 4,300  Level FlightAware ADS-B
Tue 02:38:57 AM 35.5130 140.5560 327° Northwest 211 243 4,300  Level FlightAware ADS-B
Tue 02:39:23 AM 35.5360 140.5400 330° Northwest 186 214 4,300  Level FlightAware ADS-B
Tue 02:39:42 AM 35.5500 140.5300 330° Northwest 185 213 4,300  Level FlightAware ADS-B
Tue 02:39:55 AM 35.5590 140.5230 328° Northwest 171 197 4,300 -182 Level FlightAware ADS-B
Tue 02:40:15 AM 35.5710 140.5150 332° Northwest 150 173 4,200 -649 Descending FlightAware ADS-B
Tue 02:40:32 AM 35.5830 140.5060 329° Northwest 155 178 3,900 -833 Descending FlightAware ADS-B
Tue 02:40:51 AM 35.5940 140.4980 329° Northwest 152 175 3,700 -750 Descending FlightAware ADS-B
Tue 02:41:04 AM 35.6000 140.4940 332° Northwest 152 175 3,500 -909 Descending FlightAware ADS-B
Tue 02:41:24 AM 35.6160 140.4820 329° Northwest 155 178 3,200 -857 Descending FlightAware ADS-B
Tue 02:41:53 AM 35.6330 140.4710 332° Northwest 158 182 2,800 -857 Descending FlightAware ADS-B
Tue 02:42:13 AM 35.6450 140.4620 329° Northwest 156 180 2,500 -973 Descending FlightAware ADS-B
Tue 02:42:30 AM 35.6610 140.4500 329° Northwest 164 189 2,200 -973 Descending FlightAware ADS-B
Tue 02:42:50 AM 35.6730 140.4410 329° Northwest 151 174 1,900 -833 Descending FlightAware ADS-B
Tue 02:43:06 AM 35.6830 140.4340 330° Northwest 145 167 1,700 -774 Descending FlightAware ADS-B
Tue 02:43:21 AM 35.6920 140.4280 332° Northwest 148 170 1,500 -750 Descending FlightAware ADS-B
Tue 02:43:46 AM 35.7060 140.4180 330° Northwest 144 166 1,200 -667 Descending FlightAware ADS-B
Tue 02:44:06 AM 35.7180 140.4090 329° Northwest 147 169 1,000 -581 Descending FlightAware ADS-B
Tue 02:44:17 AM 35.7240 140.4050 332° Northwest 147 169 900 -649 Descending FlightAware ADS-B
Tue 02:44:43 AM 35.7390 140.3940 329° Northwest 143 165 600 -340 Descending FlightAware ADS-B
Tue 02:45:10 AM 35.7520 140.3840 328° Northwest 143 165 600  Level FlightAware ADS-B

Login

Don't have an account? Register now (free) for customized features, flight alerts, and more!